Observation data for Amarillo 15 North Northwest on 05/26/2019      Previous  Date  Next       Current Mesonet Observations  Soil Data  Daily Summary Page  Observations in Plain Language
KAM3 260500Z 17016KT 20/20 A2992 RMK A01 T02030201  RH  098%=      5-min Rain = 0
KAM3 260501Z 17019KT 20/20 A2992 RMK A01 T02030201  RH  099%=      5-min Rain = 0
KAM3 260502Z 17015KT 20/20 A2992 RMK A01 T02030202  RH  099%=      5-min Rain = 0
KAM3 260503Z 17015KT 20/20 A2992 RMK A01 T02030202  RH  099%=      5-min Rain = 0
KAM3 260504Z 17019KT 20/20 A2992 RMK A01 T02030203  RH  100%=      5-min Rain = 0
KAM3 260505Z 17015G20KT 20/20 A2992 RMK A01 T02030202  RH  100%=      5-min Rain = 0
KAM3 260506Z 17015KT 20/20 A2992 RMK A01 T02030202  RH  099%=      5-min Rain = 0
KAM3 260507Z 17018KT 20/20 A2993 RMK A01 T02030202  RH  100%=      5-min Rain = 0
KAM3 260508Z 17017KT 20/20 A2992 RMK A01 T02030202  RH  099%=      5-min Rain = 0
KAM3 260509Z 17016KT 20/20 A2993 RMK A01 T02040202  RH  099%=      5-min Rain = 0
KAM3 260510Z 17017G22KT 20/20 A2993 RMK A01 T02040203  RH  100%=      5-min Rain = 0
KAM3 260511Z 17019G24KT 20/20 A2993 RMK A01 T02030203  RH  100%=      5-min Rain = 0
KAM3 260512Z 17017KT 20/20 A2993 RMK A01 T02040203  RH  099%=      5-min Rain = 0
KAM3 260513Z 17019KT 20/20 A2993 RMK A01 T02040203  RH  099%=      5-min Rain = 0
KAM3 260514Z 17017KT 20/20 A2993 RMK A01 T02040203  RH  099%=      5-min Rain = 0
KAM3 260515Z 17017KT 20/20 A2993 RMK A01 T02040203  RH  099%=      5-min Rain = 0
KAM3 260516Z 17016G21KT 20/20 A2993 RMK A01 T02040203  RH  099%=      5-min Rain = 0
KAM3 260517Z 17016KT 20/20 A2993 RMK A01 T02040204  RH  100%=      5-min Rain = 0
KAM3 260518Z 17018KT 20/20 A2993 RMK A01 T02030203  RH  100%=      5-min Rain = 0
KAM3 260519Z 17019KT 20/20 A2993 RMK A01 T02030203  RH  100%=      5-min Rain = 0
KAM3 260520Z 16018KT 20/20 A2993 RMK A01 T02030203  RH  100%=      5-min Rain = 0
KAM3 260521Z 17016KT 20/20 A2993 RMK A01 T02030203  RH  100%=      5-min Rain = 0
KAM3 260522Z 16016KT 20/20 A2993 RMK A01 T02030203  RH  100%=      5-min Rain = 0
KAM3 260523Z 16016KT 20/20 A2993 RMK A01 T02030203  RH  100%=      5-min Rain = 0
KAM3 260524Z 17019G24KT 20/20 A2993 RMK A01 T02020203  RH  100%=      5-min Rain = 0
KAM3 260525Z 16018G23KT 20/20 A2993 RMK A01 T02020202  RH  100%=      5-min Rain = 0
KAM3 260526Z 16017KT 20/20 A2993 RMK A01 T02020202  RH  100%=      5-min Rain = 0
KAM3 260527Z 17016KT 20/20 A2993 RMK A01 T02020203  RH  100%=      5-min Rain = 0
KAM3 260528Z 17015G20KT 20/20 A2993 RMK A01 T02020202  RH  100%=      5-min Rain = 0
KAM3 260529Z 17013KT 20/20 A2993 RMK A01 T02010202  RH  100%=      5-min Rain = 0
KAM3 260530Z 17015KT 20/20 A2993 RMK A01 T02010201  RH  100%=      5-min Rain = 0
KAM3 260531Z 17015KT 20/20 A2993 RMK A01 T02010201  RH  100%=      5-min Rain = 0
KAM3 260532Z 16015KT 20/20 A2993 RMK A01 T02010201  RH  100%=      5-min Rain = 0
KAM3 260533Z 16014G19KT 20/20 A2993 RMK A01 T02000200  RH  100%=      5-min Rain = 0
KAM3 260534Z 16016G21KT 20/20 A2993 RMK A01 T02000200  RH  100%=      5-min Rain = 0
KAM3 260535Z 16015G20KT 20/20 A2993 RMK A01 T02000200  RH  100%=      5-min Rain = 0
KAM3 260536Z 16015KT 20/20 A2993 RMK A01 T02000200  RH  100%=      5-min Rain = 0
KAM3 260537Z 17014KT 20/20 A2993 RMK A01 T02000200  RH  100%=      5-min Rain = 0
KAM3 260538Z 17014KT 20/20 A2993 RMK A01 T02000200  RH  100%=      5-min Rain = 0
KAM3 260539Z 17014KT 20/20 A2993 RMK A01 T02000200  RH  100%=      5-min Rain = 0
KAM3 260540Z 16016G21KT 20/20 A2993 RMK A01 T02000200  RH  100%=      5-min Rain = 0
KAM3 260541Z 17015KT 20/20 A2993 RMK A01 T01990200  RH  100%=      5-min Rain = 0
KAM3 260542Z 17016KT 20/20 A2993 RMK A01 T02000200  RH  100%=      5-min Rain = 0
KAM3 260543Z 17014KT 20/20 A2993 RMK A01 T02000200  RH  100%=      5-min Rain = 0
KAM3 260544Z 17015KT 20/20 A2993 RMK A01 T01990199  RH  100%=      5-min Rain = 0
KAM3 260545Z 17014KT 20/20 A2993 RMK A01 T01980198  RH  100%=      5-min Rain = 0
KAM3 260546Z 17015KT 20/20 A2993 RMK A01 T01980198  RH  100%=      5-min Rain = 0
KAM3 260547Z 17014KT 20/20 A2993 RMK A01 T01980199  RH  100%=      5-min Rain = 0
KAM3 260548Z 17013KT 20/20 A2994 RMK A01 T01980198  RH  100%=      5-min Rain = 0
KAM3 260549Z 18013KT 20/20 A2994 RMK A01 T01980198  RH  100%=      5-min Rain = 0
KAM3 260550Z 17014KT 20/20 A2994 RMK A01 T01980198  RH  100%=      5-min Rain = 0
KAM3 260551Z 17016KT 20/20 A2994 RMK A01 T01980198  RH  100%=      5-min Rain = 0
KAM3 260552Z 17015KT 20/20 A2994 RMK A01 T01980198  RH  100%=      5-min Rain = 0
KAM3 260553Z 17011KT 20/20 A2994 RMK A01 T01980198  RH  100%=      5-min Rain = 0
KAM3 260554Z 18012KT 20/20 A2994 RMK A01 T01970197  RH  100%=      5-min Rain = 0
KAM3 260555Z 18012KT 20/20 A2994 RMK A01 T01960197  RH  100%=      5-min Rain = 0
KAM3 260556Z 18012KT 20/20 A2994 RMK A01 T01960197  RH  100%=      5-min Rain = 0
KAM3 260557Z 18012KT 20/20 A2994 RMK A01 T01960197  RH  100%=      5-min Rain = 0
KAM3 260558Z 17013KT 20/20 A2994 RMK A01 T01970197  RH  100%=      5-min Rain = 0
KAM3 260559Z 17012KT 20/20 A2994 RMK A01 T01960196  RH  100%=      5-min Rain = 0
KAM3 260600Z 17013KT 20/20 A2994 RMK A01 T01960196  RH  100%=      5-min Rain = 0
KAM3 260601Z 17012KT 20/20 A2994 RMK A01 T01960197  RH  100%=      5-min Rain = 0
KAM3 260602Z 17014KT 20/20 A2994 RMK A01 T01960196  RH  100%=      5-min Rain = 0
KAM3 260603Z 17013KT 20/20 A2994 RMK A01 T01960197  RH  100%=      5-min Rain = 0
KAM3 260604Z 17011KT 20/20 A2994 RMK A01 T01960196  RH  100%=      5-min Rain = 0
KAM3 260605Z 17011KT 20/20 A2994 RMK A01 T01960196  RH  100%=      5-min Rain = 0
KAM3 260606Z 17011KT 20/20 A2994 RMK A01 T01960196  RH  100%=      5-min Rain = 0
KAM3 260607Z 17012KT 20/20 A2994 RMK A01 T01960196  RH  100%=      5-min Rain = 0
KAM3 260608Z 18011KT 20/20 A2994 RMK A01 T01950196  RH  100%=      5-min Rain = 0
KAM3 260609Z 18012KT 20/20 A2994 RMK A01 T01960196  RH  100%=      5-min Rain = 0
KAM3 260610Z 18012KT 20/20 A2994 RMK A01 T01950196  RH  100%=      5-min Rain = 0
KAM3 260611Z 18012KT 20/20 A2994 RMK A01 T01950195  RH  100%=      5-min Rain = 0
KAM3 260612Z 18009KT 20/20 A2994 RMK A01 T01960196  RH  100%=      5-min Rain = 0
KAM3 260613Z 17010KT 20/20 A2994 RMK A01 T01950196  RH  100%=      5-min Rain = 0
KAM3 260614Z 17013KT 20/20 A2994 RMK A01 T01950196  RH  100%=      5-min Rain = 0
KAM3 260615Z 17011KT 20/20 A2994 RMK A01 T01960196  RH  100%=      5-min Rain = 0
KAM3 260616Z 17010KT 20/20 A2994 RMK A01 T01950196  RH  100%=      5-min Rain = 0
KAM3 260617Z 17011KT 20/20 A2994 RMK A01 T01950196  RH  100%=      5-min Rain = 0
KAM3 260618Z 17012KT 20/20 A2994 RMK A01 T01950196  RH  100%=      5-min Rain = 0
KAM3 260619Z 17010KT 20/20 A2994 RMK A01 T01950195  RH  100%=      5-min Rain = 0
KAM3 260620Z 16010KT 20/20 A2994 RMK A01 T01950195  RH  100%=      5-min Rain = 0
KAM3 260621Z 17009KT 20/20 A2994 RMK A01 T01960196  RH  100%=      5-min Rain = 0
KAM3 260622Z 17009G15KT 20/20 A2994 RMK A01 T01950196  RH  100%=      5-min Rain = 0
KAM3 260623Z 17010KT 20/20 A2994 RMK A01 T01950195  RH  100%=      5-min Rain = 0
KAM3 260624Z 17011KT 20/20 A2994 RMK A01 T01950195  RH  100%=      5-min Rain = 0
KAM3 260625Z 16009KT 20/20 A2994 RMK A01 T01950195  RH  100%=      5-min Rain = 0
KAM3 260626Z 17010KT 20/20 A2995 RMK A01 T01950195  RH  100%=      5-min Rain = 0
KAM3 260627Z 17010KT 20/20 A2995 RMK A01 T01950195  RH  100%=      5-min Rain = 0
KAM3 260628Z 17010KT 20/20 A2995 RMK A01 T01950195  RH  100%=      5-min Rain = 0
KAM3 260629Z 16008KT 20/20 A2995 RMK A01 T01950195  RH  100%=      5-min Rain = 0
KAM3 260630Z 17009KT 20/20 A2995 RMK A01 T01950195  RH  100%=      5-min Rain = 0
KAM3 260631Z 17008KT 20/20 A2995 RMK A01 T01950195  RH  100%=      5-min Rain = 0
KAM3 260632Z 17008KT 20/20 A2995 RMK A01 T01950195  RH  100%=      5-min Rain = 0
KAM3 260633Z 16007KT 20/20 A2995 RMK A01 T01950195  RH  100%=      5-min Rain = 0
KAM3 260634Z 17010KT 20/20 A2995 RMK A01 T01950195  RH  100%=      5-min Rain = 0
KAM3 260635Z 16008KT 20/20 A2995 RMK A01 T01950195  RH  100%=      5-min Rain = 0
KAM3 260636Z 16008KT 19/20 A2995 RMK A01 T01940195  RH  100%=      5-min Rain = 0
KAM3 260637Z 16009KT 19/20 A2995 RMK A01 T01940195  RH  100%=      5-min Rain = 0
KAM3 260638Z 16009KT 20/20 A2995 RMK A01 T01950195  RH  100%=      5-min Rain = 0
KAM3 260639Z 17007KT 20/20 A2995 RMK A01 T01950195  RH  100%=      5-min Rain = 0
KAM3 260640Z 15006KT 20/20 A2995 RMK A01 T01950195  RH  100%=      5-min Rain = 0
KAM3 260641Z 16008KT 20/20 A2995 RMK A01 T01950195  RH  100%=      5-min Rain = 0
KAM3 260642Z 16005KT 20/20 A2995 RMK A01 T01950195  RH  100%=      5-min Rain = 0
KAM3 260643Z 15006KT 20/20 A2995 RMK A01 T01950195  RH  100%=      5-min Rain = 0
KAM3 260644Z 15007KT 20/20 A2995 RMK A01 T01950195  RH  100%=      5-min Rain = 0
KAM3 260645Z 16006KT 19/19 A2995 RMK A01 T01940194  RH  100%=      5-min Rain = 0
KAM3 260646Z 15007KT 19/19 A2995 RMK A01 T01940194  RH  100%=      5-min Rain = 0
KAM3 260647Z 15006KT 19/19 A2995 RMK A01 T01940194  RH  100%=      5-min Rain = 0
KAM3 260648Z 15006KT 19/19 A2995 RMK A01 T01940194  RH  100%=      5-min Rain = 0
KAM3 260649Z 16006KT 19/19 A2995 RMK A01 T01940194  RH  100%=      5-min Rain = 0
KAM3 260650Z 14005KT 19/19 A2995 RMK A01 T01940194  RH  100%=      5-min Rain = 0
KAM3 260651Z 15004KT 19/20 A2995 RMK A01 T01940195  RH  100%=      5-min Rain = 0
KAM3 260652Z 14004KT 20/20 A2995 RMK A01 T01950195  RH  100%=      5-min Rain = 0
KAM3 260653Z 13006KT 19/19 A2995 RMK A01 T01940194  RH  100%=      5-min Rain = 0
KAM3 260654Z 13004KT 19/19 A2995 RMK A01 T01940194  RH  100%=      5-min Rain = 0
KAM3 260655Z 13005KT 19/19 A2995 RMK A01 T01940194  RH  100%=      5-min Rain = 0
KAM3 260656Z 14005KT 19/19 A2995 RMK A01 T01940194  RH  100%=      5-min Rain = 0
KAM3 260657Z 14005KT 19/19 A2995 RMK A01 T01930193  RH  100%=      5-min Rain = 0
KAM3 260658Z 14005KT 19/19 A2995 RMK A01 T01930193  RH  100%=      5-min Rain = 0
KAM3 260659Z 12006KT 19/19 A2995 RMK A01 T01930193  RH  100%=      5-min Rain = 0
KAM3 260700Z 14006KT 19/19 A2995 RMK A01 T01930193  RH  100%=      5-min Rain = 0
KAM3 260701Z 12005KT 19/19 A2995 RMK A01 T01930193  RH  100%=      5-min Rain = 0
KAM3 260702Z 13005KT 19/19 A2995 RMK A01 T01930193  RH  100%=      5-min Rain = 0
KAM3 260703Z 12005KT 19/19 A2995 RMK A01 T01920193  RH  100%=      5-min Rain = 0
KAM3 260704Z 12005KT 19/19 A2995 RMK A01 T01920192  RH  100%=      5-min Rain = 0
KAM3 260705Z 09005KT 19/19 A2995 RMK A01 T01920192  RH  100%=      5-min Rain = 0
KAM3 260706Z 07005KT 19/19 A2995 RMK A01 T01910191  RH  100%=      5-min Rain = 0
KAM3 260707Z 09005KT 19/19 A2995 RMK A01 T01910191  RH  100%=      5-min Rain = 0
KAM3 260708Z 07005KT 19/19 A2995 RMK A01 T01900190  RH  100%=      5-min Rain = 0
KAM3 260709Z 06006KT 19/19 A2995 RMK A01 T01890189  RH  100%=      5-min Rain = 0
KAM3 260710Z 06005KT 19/19 A2995 RMK A01 T01880189  RH  100%=      5-min Rain = 0
KAM3 260711Z 06005KT 19/19 A2995 RMK A01 T01880188  RH  100%=      5-min Rain = 0
KAM3 260712Z 06005KT 19/19 A2995 RMK A01 T01880188  RH  100%=      5-min Rain = 0
KAM3 260713Z 06005KT 19/19 A2995 RMK A01 T01880188  RH  100%=      5-min Rain = 0
KAM3 260714Z 07006KT 19/19 A2995 RMK A01 T01870187  RH  100%=      5-min Rain = 0
KAM3 260715Z 07006KT 19/19 A2995 RMK A01 T01860186  RH  100%=      5-min Rain = 0
KAM3 260716Z 09007KT 19/19 A2995 RMK A01 T01860186  RH  100%=      5-min Rain = 0
KAM3 260717Z 08006KT 19/19 A2995 RMK A01 T01860186  RH  100%=      5-min Rain = 0
KAM3 260718Z 09008KT 19/19 A2995 RMK A01 T01850185  RH  100%=      5-min Rain = 0
KAM3 260719Z 09007KT 19/19 A2995 RMK A01 T01850185  RH  100%=      5-min Rain = 0
KAM3 260720Z 08006KT 19/19 A2995 RMK A01 T01860186  RH  100%=      5-min Rain = 0
KAM3 260721Z 08006KT 19/19 A2995 RMK A01 T01860186  RH  100%=      5-min Rain = 0
KAM3 260722Z 06006KT 19/19 A2995 RMK A01 T01860186  RH  100%=      5-min Rain = 0
KAM3 260723Z 07006KT 19/19 A2995 RMK A01 T01850186  RH  100%=      5-min Rain = 0
KAM3 260724Z 08005KT 19/19 A2995 RMK A01 T01850185  RH  100%=      5-min Rain = 0
KAM3 260725Z 06005KT 19/19 A2995 RMK A01 T01850185  RH  100%=      5-min Rain = 0
KAM3 260726Z 08007KT 18/18 A2995 RMK A01 T01840184  RH  100%=      5-min Rain = 0
KAM3 260727Z 09007KT 18/18 A2995 RMK A01 T01840184  RH  100%=      5-min Rain = 0
KAM3 260728Z 09007KT 19/19 A2995 RMK A01 T01850185  RH  100%=      5-min Rain = 0
KAM3 260729Z 12008KT 19/19 A2995 RMK A01 T01860186  RH  100%=      5-min Rain = 0
KAM3 260730Z 11006KT 19/19 A2995 RMK A01 T01870187  RH  100%=      5-min Rain = 0
KAM3 260731Z 11006KT 19/19 A2995 RMK A01 T01880188  RH  100%=      5-min Rain = 0
KAM3 260732Z 12006KT 19/19 A2995 RMK A01 T01880188  RH  100%=      5-min Rain = 0
KAM3 260733Z 14006KT 19/19 A2996 RMK A01 T01880188  RH  100%=      5-min Rain = 0
KAM3 260734Z 13006KT 19/19 A2996 RMK A01 T01890189  RH  100%=      5-min Rain = 0
KAM3 260735Z 13006KT 19/19 A2996 RMK A01 T01890190  RH  100%=      5-min Rain = 0
KAM3 260736Z 13006KT 19/19 A2996 RMK A01 T01890189  RH  100%=      5-min Rain = 0
KAM3 260737Z 13006KT 19/19 A2996 RMK A01 T01890189  RH  100%=      5-min Rain = 0
KAM3 260738Z 12006KT 19/19 A2996 RMK A01 T01880188  RH  100%=      5-min Rain = 0
KAM3 260739Z 11006KT 19/19 A2996 RMK A01 T01880188  RH  100%=      5-min Rain = 0
KAM3 260740Z 10006KT 19/19 A2996 RMK A01 T01870187  RH  100%=      5-min Rain = 0
KAM3 260741Z 10007KT 19/19 A2996 RMK A01 T01860186  RH  100%=      5-min Rain = 0
KAM3 260742Z 10007KT 19/19 A2996 RMK A01 T01850186  RH  100%=      5-min Rain = 0
KAM3 260743Z 10008KT 19/19 A2996 RMK A01 T01850185  RH  100%=      5-min Rain = 0
KAM3 260744Z 09008KT 19/19 A2996 RMK A01 T01850186  RH  100%=      5-min Rain = 0
KAM3 260745Z 10008KT 19/19 A2996 RMK A01 T01860186  RH  100%=      5-min Rain = 0
KAM3 260746Z 10008KT 19/19 A2996 RMK A01 T01860186  RH  100%=      5-min Rain = 0
KAM3 260747Z 10008KT 19/19 A2996 RMK A01 T01860186  RH  100%=      5-min Rain = 0
KAM3 260748Z 10008KT 19/19 A2996 RMK A01 T01870187  RH  100%=      5-min Rain = 0
KAM3 260749Z 09007KT 19/19 A2996 RMK A01 T01870187  RH  100%=      5-min Rain = 0
KAM3 260750Z 10007KT 19/19 A2996 RMK A01 T01870187  RH  100%=      5-min Rain = 0
KAM3 260751Z 10006KT 19/19 A2996 RMK A01 T01860187  RH  100%=      5-min Rain = 0
KAM3 260752Z 09006KT 19/19 A2996 RMK A01 T01860186  RH  100%=      5-min Rain = 0
KAM3 260753Z 10007KT 19/19 A2996 RMK A01 T01860186  RH  100%=      5-min Rain = 0
KAM3 260754Z 09007KT 19/19 A2996 RMK A01 T01870187  RH  100%=      5-min Rain = 0
KAM3 260755Z 09006KT 19/19 A2996 RMK A01 T01870188  RH  100%=      5-min Rain = 0
KAM3 260756Z 09007KT 19/19 A2996 RMK A01 T01880188  RH  100%=      5-min Rain = 0
KAM3 260757Z 10007KT 19/19 A2996 RMK A01 T01880188  RH  100%=      5-min Rain = 0
KAM3 260758Z 11008KT 19/19 A2996 RMK A01 T01870187  RH  100%=      5-min Rain = 0
KAM3 260759Z 10008KT 19/19 A2996 RMK A01 T01870187  RH  100%=      5-min Rain = 0
KAM3 260800Z 11010KT 19/19 A2996 RMK A01 T01880188  RH  100%=      5-min Rain = 0
KAM3 260801Z 11009KT 19/19 A2996 RMK A01 T01880189  RH  100%=      5-min Rain = 0
KAM3 260802Z 12010KT 19/19 A2996 RMK A01 T01890189  RH  100%=      5-min Rain = 0
KAM3 260803Z 12009KT 19/19 A2996 RMK A01 T01900190  RH  100%=      5-min Rain = 0
KAM3 260804Z 11009KT 19/19 A2996 RMK A01 T01910191  RH  100%=      5-min Rain = 0
KAM3 260805Z 12008KT 19/19 A2996 RMK A01 T01910191  RH  100%=      5-min Rain = 0
KAM3 260806Z 11010KT 19/19 A2996 RMK A01 T01900190  RH  100%=      5-min Rain = 0
KAM3 260807Z 12008KT 19/19 A2996 RMK A01 T01900191  RH  100%=      5-min Rain = 0
KAM3 260808Z 12007KT 19/19 A2996 RMK A01 T01900190  RH  100%=      5-min Rain = 0
KAM3 260809Z 11008KT 19/19 A2996 RMK A01 T01900190  RH  100%=      5-min Rain = 0
KAM3 260810Z 11008KT 19/19 A2996 RMK A01 T01890190  RH  100%=      5-min Rain = 0
KAM3 260811Z 12008KT 19/19 A2996 RMK A01 T01900190  RH  100%=      5-min Rain = 0
KAM3 260812Z 12008KT 19/19 A2996 RMK A01 T01890189  RH  100%=      5-min Rain = 0
KAM3 260813Z 12009KT 19/19 A2996 RMK A01 T01890189  RH  100%=      5-min Rain = 0
KAM3 260814Z 11009KT 19/19 A2996 RMK A01 T01890189  RH  100%=      5-min Rain = 0
KAM3 260815Z 11008KT 19/19 A2996 RMK A01 T01890189  RH  100%=      5-min Rain = 0
KAM3 260816Z 11008KT 19/19 A2996 RMK A01 T01890189  RH  100%=      5-min Rain = 0
KAM3 260817Z 12008KT 19/19 A2996 RMK A01 T01890189  RH  100%=      5-min Rain = 0
KAM3 260818Z 12008KT 19/19 A2996 RMK A01 T01890189  RH  100%=      5-min Rain = 0
KAM3 260819Z 12007KT 19/19 A2996 RMK A01 T01890189  RH  100%=      5-min Rain = 0
KAM3 260820Z 11007KT 19/19 A2996 RMK A01 T01880188  RH  100%=      5-min Rain = 0
KAM3 260821Z 12008KT 19/19 A2996 RMK A01 T01870188  RH  100%=      5-min Rain = 0
KAM3 260822Z 12008KT 19/19 A2996 RMK A01 T01870187  RH  100%=      5-min Rain = 0
KAM3 260823Z 12007KT 19/19 A2995 RMK A01 T01870187  RH  100%=      5-min Rain = 0
KAM3 260824Z 12007KT 19/19 A2995 RMK A01 T01870187  RH  100%=      5-min Rain = 0
KAM3 260825Z 12006KT 19/19 A2995 RMK A01 T01860186  RH  100%=      5-min Rain = 0
KAM3 260826Z 12006KT 19/19 A2995 RMK A01 T01860186  RH  100%=      5-min Rain = 0
KAM3 260827Z 12006KT 19/19 A2995 RMK A01 T01860186  RH  100%=      5-min Rain = 0
KAM3 260828Z 12007KT 19/19 A2995 RMK A01 T01850185  RH  100%=      5-min Rain = 0
KAM3 260829Z 12007KT 19/19 A2995 RMK A01 T01850185  RH  100%=      5-min Rain = 0
KAM3 260830Z 13007KT 19/19 A2995 RMK A01 T01860186  RH  100%=      5-min Rain = 0
KAM3 260831Z 13007KT 19/19 A2995 RMK A01 T01860186  RH  100%=      5-min Rain = 0
KAM3 260832Z 13006KT 19/19 A2995 RMK A01 T01850185  RH  100%=      5-min Rain = 0
KAM3 260833Z 14006KT 19/19 A2995 RMK A01 T01860186  RH  100%=      5-min Rain = 0
KAM3 260834Z 14006KT 19/19 A2995 RMK A01 T01850186  RH  100%=      5-min Rain = 0
KAM3 260835Z 13006KT 19/19 A2995 RMK A01 T01860186  RH  100%=      5-min Rain = 0
KAM3 260836Z 14007KT 19/19 A2995 RMK A01 T01850185  RH  100%=      5-min Rain = 0
KAM3 260837Z 14008KT 19/19 A2995 RMK A01 T01850185  RH  100%=      5-min Rain = 0
KAM3 260838Z 14007KT 19/19 A2995 RMK A01 T01850185  RH  100%=      5-min Rain = 0
KAM3 260839Z 14008KT 19/19 A2995 RMK A01 T01850185  RH  100%=      5-min Rain = 0
KAM3 260840Z 14007KT 19/19 A2995 RMK A01 T01850186  RH  100%=      5-min Rain = 0
KAM3 260841Z 14008KT 19/19 A2995 RMK A01 T01850185  RH  100%=      5-min Rain = 0
KAM3 260842Z 14008KT 19/19 A2995 RMK A01 T01860186  RH  100%=      5-min Rain = 0
KAM3 260843Z 14009KT 19/19 A2995 RMK A01 T01850185  RH  100%=      5-min Rain = 0
KAM3 260844Z 14009KT 19/19 A2995 RMK A01 T01850185  RH  100%=      5-min Rain = 0
KAM3 260845Z 14009KT 19/19 A2995 RMK A01 T01860186  RH  100%=      5-min Rain = 0
KAM3 260846Z 14009KT 19/19 A2995 RMK A01 T01860186  RH  100%=      5-min Rain = 0
KAM3 260847Z 14009KT 19/19 A2995 RMK A01 T01860186  RH  100%=      5-min Rain = 0
KAM3 260848Z 13009KT 19/19 A2995 RMK A01 T01860186  RH  100%=      5-min Rain = 0
KAM3 260849Z 13009KT 19/19 A2995 RMK A01 T01860186  RH  100%=      5-min Rain = 0
KAM3 260850Z 14009KT 19/19 A2995 RMK A01 T01860186  RH  100%=      5-min Rain = 0
KAM3 260851Z 14009KT 19/19 A2995 RMK A01 T01860186  RH  100%=      5-min Rain = 0
KAM3 260852Z 13009KT 19/19 A2995 RMK A01 T01860186  RH  100%=      5-min Rain = 0
KAM3 260853Z 13010KT 19/19 A2995 RMK A01 T01860186  RH  100%=      5-min Rain = 0
KAM3 260854Z 14009KT 19/19 A2995 RMK A01 T01860186  RH  100%=      5-min Rain = 0
KAM3 260855Z 14008KT 19/19 A2995 RMK A01 T01860186  RH  100%=      5-min Rain = 0
KAM3 260856Z 14008KT 19/19 A2995 RMK A01 T01860186  RH  100%=      5-min Rain = 0
KAM3 260857Z 14007KT 19/19 A2995 RMK A01 T01850185  RH  100%=      5-min Rain = 0
KAM3 260858Z 13009KT 19/19 A2995 RMK A01 T01850185  RH  100%=      5-min Rain = 0
KAM3 260859Z 13009KT 18/18 A2995 RMK A01 T01840184  RH  100%=      5-min Rain = 0
KAM3 260900Z 15009KT 18/18 A2995 RMK A01 T01840184  RH  100%=      5-min Rain = 0
KAM3 260901Z 15007KT 18/18 A2996 RMK A01 T01840184  RH  100%=      5-min Rain = 0
KAM3 260902Z 15007KT 18/18 A2995 RMK A01 T01840184  RH  100%=      5-min Rain = 0
KAM3 260903Z 14008KT 18/18 A2995 RMK A01 T01840184  RH  100%=      5-min Rain = 0
KAM3 260904Z 14009KT 18/18 A2995 RMK A01 T01840184  RH  100%=      5-min Rain = 0
KAM3 260905Z 15008KT 18/18 A2995 RMK A01 T01840184  RH  100%=      5-min Rain = 0
KAM3 260906Z 15008KT 18/18 A2995 RMK A01 T01840184  RH  100%=      5-min Rain = 0
KAM3 260907Z 14010KT 18/18 A2995 RMK A01 T01840184  RH  100%=      5-min Rain = 0
KAM3 260908Z 15010KT 18/18 A2995 RMK A01 T01840184  RH  100%=      5-min Rain = 0
KAM3 260909Z 14009KT 19/19 A2995 RMK A01 T01850185  RH  100%=      5-min Rain = 0
KAM3 260910Z 14008KT 19/19 A2995 RMK A01 T01850185  RH  100%=      5-min Rain = 0
KAM3 260911Z 14009KT 19/19 A2995 RMK A01 T01850185  RH  100%=      5-min Rain = 0
KAM3 260912Z 14008KT 19/19 A2995 RMK A01 T01850185  RH  100%=      5-min Rain = 0
KAM3 260913Z 14008KT 19/19 A2995 RMK A01 T01850185  RH  100%=      5-min Rain = 0
KAM3 260914Z 14008KT 18/18 A2995 RMK A01 T01840184  RH  100%=      5-min Rain = 0
KAM3 260915Z 14007KT 18/18 A2995 RMK A01 T01840184  RH  100%=      5-min Rain = 0
KAM3 260916Z 13008KT 18/18 A2995 RMK A01 T01830183  RH  100%=      5-min Rain = 0
KAM3 260917Z 13008KT 18/18 A2995 RMK A01 T01830183  RH  100%=      5-min Rain = 0
KAM3 260918Z 13008KT 18/18 A2995 RMK A01 T01820182  RH  100%=      5-min Rain = 0
KAM3 260919Z 13008KT 18/18 A2995 RMK A01 T01820182  RH  100%=      5-min Rain = 0
KAM3 260920Z 14007KT 18/18 A2996 RMK A01 T01820182  RH  100%=      5-min Rain = 0
KAM3 260921Z 14008KT 18/18 A2996 RMK A01 T01820182  RH  100%=      5-min Rain = 0
KAM3 260922Z 14008KT 18/18 A2996 RMK A01 T01810181  RH  100%=      5-min Rain = 0
KAM3 260923Z 15007KT 18/18 A2996 RMK A01 T01810182  RH  100%=      5-min Rain = 0
KAM3 260924Z 14008KT 18/18 A2996 RMK A01 T01810182  RH  100%=      5-min Rain = 0
KAM3 260925Z 14007KT 18/18 A2996 RMK A01 T01810181  RH  100%=      5-min Rain = 0
KAM3 260926Z 13008KT 18/18 A2996 RMK A01 T01810181  RH  100%=      5-min Rain = 0
KAM3 260927Z 13008KT 18/18 A2996 RMK A01 T01810181  RH  100%=      5-min Rain = 0
KAM3 260928Z 14008KT 18/18 A2996 RMK A01 T01810181  RH  100%=      5-min Rain = 0
KAM3 260929Z 14007KT 18/18 A2996 RMK A01 T01810181  RH  100%=      5-min Rain = 0
KAM3 260930Z 15007KT 18/18 A2996 RMK A01 T01810181  RH  100%=      5-min Rain = 0
KAM3 260931Z 15007KT 18/18 A2996 RMK A01 T01810181  RH  100%=      5-min Rain = 0
KAM3 260932Z 15007KT 18/18 A2996 RMK A01 T01810181  RH  100%=      5-min Rain = 0
KAM3 260933Z 14007KT 18/18 A2996 RMK A01 T01810181  RH  100%=      5-min Rain = 0
KAM3 260934Z 14008KT 18/18 A2996 RMK A01 T01810181  RH  100%=      5-min Rain = 0
KAM3 260935Z 14008KT 18/18 A2996 RMK A01 T01820182  RH  100%=      5-min Rain = 0
KAM3 260936Z 14008KT 18/18 A2996 RMK A01 T01820182  RH  100%=      5-min Rain = 0
KAM3 260937Z 14007KT 18/18 A2996 RMK A01 T01820182  RH  100%=      5-min Rain = 0
KAM3 260938Z 14007KT 18/18 A2996 RMK A01 T01820182  RH  100%=      5-min Rain = 0
KAM3 260939Z 14008KT 18/18 A2996 RMK A01 T01820182  RH  100%=      5-min Rain = 0
KAM3 260940Z 14007KT 18/18 A2996 RMK A01 T01820182  RH  100%=      5-min Rain = 0
KAM3 260941Z 14008KT 18/18 A2996 RMK A01 T01820182  RH  100%=      5-min Rain = 0
KAM3 260942Z 14008KT 18/18 A2996 RMK A01 T01820182  RH  100%=      5-min Rain = 0
KAM3 260943Z 14008KT 18/18 A2996 RMK A01 T01820182  RH  100%=      5-min Rain = 0
KAM3 260944Z 13008KT 18/18 A2996 RMK A01 T01820182  RH  100%=      5-min Rain = 0
KAM3 260945Z 14007KT 18/18 A2996 RMK A01 T01820182  RH  100%=      5-min Rain = 0
KAM3 260946Z 14008KT 18/18 A2996 RMK A01 T01820182  RH  100%=      5-min Rain = 0
KAM3 260947Z 14007KT 18/18 A2996 RMK A01 T01820182  RH  100%=      5-min Rain = 0
KAM3 260948Z 14006KT 18/18 A2996 RMK A01 T01820182  RH  100%=      5-min Rain = 0
KAM3 260949Z 14006KT 18/18 A2996 RMK A01 T01820182  RH  100%=      5-min Rain = 0
KAM3 260950Z 14006KT 18/18 A2996 RMK A01 T01810181  RH  100%=      5-min Rain = 0
KAM3 260951Z 14007KT 18/18 A2996 RMK A01 T01810181  RH  100%=      5-min Rain = 0
KAM3 260952Z 14007KT 18/18 A2996 RMK A01 T01800180  RH  100%=      5-min Rain = 0
KAM3 260953Z 13007KT 18/18 A2996 RMK A01 T01800180  RH  100%=      5-min Rain = 0
KAM3 260954Z 14007KT 18/18 A2996 RMK A01 T01800180  RH  100%=      5-min Rain = 0
KAM3 260955Z 14007KT 18/18 A2996 RMK A01 T01800180  RH  100%=      5-min Rain = 0
KAM3 260956Z 14007KT 18/18 A2996 RMK A01 T01800180  RH  100%=      5-min Rain = 0
KAM3 260957Z 14006KT 18/18 A2996 RMK A01 T01800180  RH  100%=      5-min Rain = 0
KAM3 260958Z 13007KT 18/18 A2996 RMK A01 T01800180  RH  100%=      5-min Rain = 0
KAM3 260959Z 13008KT 18/18 A2996 RMK A01 T01800180  RH  100%=      5-min Rain = 0
KAM3 261000Z 14007KT 18/18 A2996 RMK A01 T01800180  RH  100%=      5-min Rain = 0
KAM3 261001Z 14007KT 18/18 A2996 RMK A01 T01790180  RH  100%=      5-min Rain = 0
KAM3 261002Z 14007KT 18/18 A2996 RMK A01 T01790180  RH  100%=      5-min Rain = 0
KAM3 261003Z 13007KT 18/18 A2996 RMK A01 T01790180  RH  100%=      5-min Rain = 0
KAM3 261004Z 13007KT 18/18 A2996 RMK A01 T01790179  RH  100%=      5-min Rain = 0
KAM3 261005Z 13006KT 18/18 A2996 RMK A01 T01790179  RH  100%=      5-min Rain = 0
KAM3 261006Z 13007KT 18/18 A2997 RMK A01 T01790179  RH  100%=      5-min Rain = 0
KAM3 261007Z 13006KT 18/18 A2997 RMK A01 T01780178  RH  100%=      5-min Rain = 0
KAM3 261008Z 13005KT 18/18 A2997 RMK A01 T01780178  RH  100%=      5-min Rain = 0
KAM3 261009Z 13006KT 18/18 A2997 RMK A01 T01780178  RH  100%=      5-min Rain = 0
KAM3 261010Z 13006KT 18/18 A2997 RMK A01 T01780178  RH  100%=      5-min Rain = 0
KAM3 261011Z 13005KT 18/18 A2997 RMK A01 T01780178  RH  100%=      5-min Rain = 0
KAM3 261012Z 13005KT 18/18 A2997 RMK A01 T01770178  RH  100%=      5-min Rain = 0
KAM3 261013Z 13005KT 18/18 A2997 RMK A01 T01780178  RH  100%=      5-min Rain = 0
KAM3 261014Z 13006KT 18/18 A2997 RMK A01 T01780178  RH  100%=      5-min Rain = 0
KAM3 261015Z 13006KT 18/18 A2997 RMK A01 T01780178  RH  100%=      5-min Rain = 0
KAM3 261016Z 12005KT 18/18 A2997 RMK A01 T01780178  RH  100%=      5-min Rain = 0
KAM3 261017Z 13005KT 18/18 A2997 RMK A01 T01780178  RH  100%=      5-min Rain = 0
KAM3 261018Z 13005KT 18/18 A2997 RMK A01 T01780178  RH  100%=      5-min Rain = 0
KAM3 261019Z 14006KT 18/18 A2997 RMK A01 T01770178  RH  100%=      5-min Rain = 0
KAM3 261020Z 14007KT 18/18 A2997 RMK A01 T01780178  RH  100%=      5-min Rain = 0
KAM3 261021Z 13006KT 18/18 A2997 RMK A01 T01790179  RH  100%=      5-min Rain = 0
KAM3 261022Z 12005KT 18/18 A2997 RMK A01 T01800180  RH  100%=      5-min Rain = 0
KAM3 261023Z 12005KT 18/18 A2997 RMK A01 T01790179  RH  100%=      5-min Rain = 0
KAM3 261024Z 12006KT 18/18 A2997 RMK A01 T01780178  RH  100%=      5-min Rain = 0
KAM3 261025Z 13006KT 18/18 A2998 RMK A01 T01770177  RH  100%=      5-min Rain = 0
KAM3 261026Z 13005KT 18/18 A2998 RMK A01 T01760176  RH  100%=      5-min Rain = 0
KAM3 261027Z 13005KT 18/18 A2998 RMK A01 T01760176  RH  100%=      5-min Rain = 0
KAM3 261028Z 14004KT 18/18 A2998 RMK A01 T01760176  RH  100%=      5-min Rain = 0
KAM3 261029Z 13006KT 18/18 A2998 RMK A01 T01760176  RH  100%=      5-min Rain = 0
KAM3 261030Z 13005KT 18/18 A2998 RMK A01 T01770177  RH  100%=      5-min Rain = 0
KAM3 261031Z 13005KT 18/18 A2998 RMK A01 T01770177  RH  100%=      5-min Rain = 0
KAM3 261032Z 14005KT 18/18 A2998 RMK A01 T01770177  RH  100%=      5-min Rain = 0
KAM3 261033Z 13005KT 18/18 A2998 RMK A01 T01770177  RH  100%=      5-min Rain = 0
KAM3 261034Z 14005KT 18/18 A2998 RMK A01 T01770177  RH  100%=      5-min Rain = 0
KAM3 261035Z 14006KT 18/18 A2998 RMK A01 T01770177  RH  100%=      5-min Rain = 0
KAM3 261036Z 14006KT 18/18 A2998 RMK A01 T01770177  RH  100%=      5-min Rain = 0
KAM3 261037Z 14005KT 18/18 A2998 RMK A01 T01770177  RH  100%=      5-min Rain = 0
KAM3 261038Z 13005KT 18/18 A2998 RMK A01 T01770177  RH  100%=      5-min Rain = 0
KAM3 261039Z 14006KT 18/18 A2998 RMK A01 T01770177  RH  100%=      5-min Rain = 0
KAM3 261040Z 13005KT 18/18 A2998 RMK A01 T01760176  RH  100%=      5-min Rain = 0
KAM3 261041Z 13005KT 18/18 A2998 RMK A01 T01760176  RH  100%=      5-min Rain = 0
KAM3 261042Z 14003KT 18/18 A2998 RMK A01 T01760176  RH  100%=      5-min Rain = 0
KAM3 261043Z 14003KT 18/18 A2998 RMK A01 T01760176  RH  100%=      5-min Rain = 0
KAM3 261044Z 14003KT 18/18 A2998 RMK A01 T01760176  RH  100%=      5-min Rain = 0
KAM3 261045Z 14003KT 18/18 A2998 RMK A01 T01760177  RH  100%=      5-min Rain = 0
KAM3 261046Z 14003KT 18/18 A2998 RMK A01 T01760176  RH  100%=      5-min Rain = 0
KAM3 261047Z 15002KT 18/18 A2998 RMK A01 T01760176  RH  100%=      5-min Rain = 0
KAM3 261048Z 16002KT 18/18 A2998 RMK A01 T01760176  RH  100%=      5-min Rain = 0
KAM3 261049Z 18001KT 18/18 A2999 RMK A01 T01760176  RH  100%=      5-min Rain = 0
KAM3 261050Z 18001KT 18/18 A2999 RMK A01 T01760176  RH  100%=      5-min Rain = 0
KAM3 261051Z 16001KT 18/18 A2999 RMK A01 T01750175  RH  100%=      5-min Rain = 0
KAM3 261052Z 30001KT 18/18 A2999 RMK A01 T01750175  RH  100%=      5-min Rain = 0
KAM3 261053Z 28002KT 17/17 A2999 RMK A01 T01740174  RH  100%=      5-min Rain = 0
KAM3 261054Z 23001KT 17/17 A2999 RMK A01 T01730173  RH  100%=      5-min Rain = 0
KAM3 261055Z 20001KT 17/17 A2999 RMK A01 T01730173  RH  100%=      5-min Rain = 0
KAM3 261056Z 20001KT 17/17 A2999 RMK A01 T01730173  RH  100%=      5-min Rain = 0
KAM3 261057Z 17001KT 17/17 A2999 RMK A01 T01740174  RH  100%=      5-min Rain = 0
KAM3 261058Z 16001KT 17/17 A2999 RMK A01 T01740174  RH  100%=      5-min Rain = 0
KAM3 261059Z 19002KT 17/17 A2999 RMK A01 T01740174  RH  100%=      5-min Rain = 0
KAM3 261100Z 18003KT 17/17 A2999 RMK A01 T01740174  RH  100%=      5-min Rain = 0
KAM3 261101Z 18003KT 17/18 A2999 RMK A01 T01740175  RH  100%=      5-min Rain = 0
KAM3 261102Z 18004KT 17/17 A2999 RMK A01 T01740174  RH  100%=      5-min Rain = 0
KAM3 261103Z 17004KT 17/17 A2999 RMK A01 T01720173  RH  100%=      5-min Rain = 0
KAM3 261104Z 17004KT 17/17 A2999 RMK A01 T01700171  RH  100%=      5-min Rain = 0
KAM3 261105Z 17005KT 17/17 A2999 RMK A01 T01700170  RH  100%=      5-min Rain = 0
KAM3 261106Z 17005KT 17/17 A2999 RMK A01 T01690170  RH  100%=      5-min Rain = 0
KAM3 261107Z 18004KT 17/17 A2999 RMK A01 T01700171  RH  100%=      5-min Rain = 0
KAM3 261108Z 17004KT 17/17 A2999 RMK A01 T01710171  RH  100%=      5-min Rain = 0
KAM3 261109Z 17003KT 17/17 A2999 RMK A01 T01710171  RH  100%=      5-min Rain = 0
KAM3 261110Z 18002KT 17/17 A2999 RMK A01 T01710171  RH  100%=      5-min Rain = 0
KAM3 261111Z 21001KT 17/17 A2999 RMK A01 T01710171  RH  100%=      5-min Rain = 0
KAM3 261112Z 25001KT 17/17 A2999 RMK A01 T01710171  RH  100%=      5-min Rain = 0
KAM3 261113Z 29002KT 17/17 A2999 RMK A01 T01710171  RH  100%=      5-min Rain = 0
KAM3 261114Z 31003KT 17/17 A2999 RMK A01 T01690169  RH  100%=      5-min Rain = 0
KAM3 261115Z 33004KT 17/17 A2999 RMK A01 T01670167  RH  100%=      5-min Rain = 0
KAM3 261116Z 34005KT 17/17 A2999 RMK A01 T01650165  RH  100%=      5-min Rain = 0
KAM3 261117Z 35006KT 16/16 A2999 RMK A01 T01630163  RH  100%=      5-min Rain = 0
KAM3 261118Z 35006KT 16/16 A30 RMK A01 T01620163  RH  100%=      5-min Rain = 0
KAM3 261119Z 35006KT 16/16 A30 RMK A01 T01620162  RH  100%=      5-min Rain = 0
KAM3 261120Z 35006KT 16/16 A30 RMK A01 T01620162  RH  100%=      5-min Rain = 0
KAM3 261121Z 35005KT 16/16 A30 RMK A01 T01620162  RH  100%=      5-min Rain = 0
KAM3 261122Z 35004KT 16/16 A30 RMK A01 T01630163  RH  100%=      5-min Rain = 0
KAM3 261123Z 35004KT 16/16 A30 RMK A01 T01630163  RH  100%=      5-min Rain = 0
KAM3 261124Z 34003KT 16/16 A30 RMK A01 T01620162  RH  100%=      5-min Rain = 0
KAM3 261125Z 34003KT 16/16 A30 RMK A01 T01630163  RH  100%=      5-min Rain = 0
KAM3 261126Z 33002KT 16/16 A30 RMK A01 T01630163  RH  100%=      5-min Rain = 0
KAM3 261127Z 32001KT 16/16 A30 RMK A01 T01630163  RH  100%=      5-min Rain = 0
KAM3 261128Z 30000KT 16/16 A30 RMK A01 T01620163  RH  100%=      5-min Rain = 0
KAM3 261129Z 19001KT 16/16 A30 RMK A01 T01630163  RH  100%=      5-min Rain = 0
KAM3 261130Z 19002KT 16/16 A30 RMK A01 T01630164  RH  100%=      5-min Rain = 0
KAM3 261131Z 19002KT 16/16 A30 RMK A01 T01640164  RH  100%=      5-min Rain = 0
KAM3 261132Z 18003KT 16/16 A2999 RMK A01 T01640164  RH  100%=      5-min Rain = 0
KAM3 261133Z 17003KT 16/16 A2999 RMK A01 T01640164  RH  100%=      5-min Rain = 0
KAM3 261134Z 17004KT 17/17 A2999 RMK A01 T01660166  RH  100%=      5-min Rain = 0
KAM3 261135Z 17005KT 17/17 A2999 RMK A01 T01660166  RH  100%=      5-min Rain = 0
KAM3 261136Z 17005KT 17/17 A2999 RMK A01 T01680168  RH  100%=      5-min Rain = 0
KAM3 261137Z 18006KT 17/17 A2999 RMK A01 T01690170  RH  100%=      5-min Rain = 0
KAM3 261138Z 18006KT 17/17 A2999 RMK A01 T01690170  RH  100%=      5-min Rain = 0
KAM3 261139Z 18006KT 17/17 A2999 RMK A01 T01690170  RH  100%=      5-min Rain = 0
KAM3 261140Z 17006KT 17/17 A2999 RMK A01 T01690169  RH  100%=      5-min Rain = 0
KAM3 261141Z 17007KT 17/17 A2999 RMK A01 T01690170  RH  100%=      5-min Rain = 0
KAM3 261142Z 17007KT 17/17 A2999 RMK A01 T01690169  RH  100%=      5-min Rain = 0
KAM3 261143Z 17007KT 17/17 A2999 RMK A01 T01690169  RH  100%=      5-min Rain = 0
KAM3 261144Z 17007KT 17/17 A2999 RMK A01 T01690169  RH  100%=      5-min Rain = 0
KAM3 261145Z 17007KT 17/17 A2999 RMK A01 T01690169  RH  100%=      5-min Rain = 0
KAM3 261146Z 17006KT 17/17 A30 RMK A01 T01690169  RH  100%=      5-min Rain = 0
KAM3 261147Z 17007KT 17/17 A30 RMK A01 T01700170  RH  100%=      5-min Rain = 0
KAM3 261148Z 17006KT 17/17 A30 RMK A01 T01700170  RH  100%=      5-min Rain = 0
KAM3 261149Z 17006KT 17/17 A30 RMK A01 T01710171  RH  100%=      5-min Rain = 0
KAM3 261150Z 17005KT 17/17 A30 RMK A01 T01710171  RH  100%=      5-min Rain = 0
KAM3 261151Z 16004KT 17/17 A30 RMK A01 T01710171  RH  100%=      5-min Rain = 0
KAM3 261152Z 17005KT 17/17 A30 RMK A01 T01710171  RH  100%=      5-min Rain = 0
KAM3 261153Z 17004KT 17/17 A30 RMK A01 T01710171  RH  100%=      5-min Rain = 0
KAM3 261154Z 17004KT 17/17 A30 RMK A01 T01710172  RH  100%=      5-min Rain = 0
KAM3 261155Z 17003KT 17/17 A30 RMK A01 T01710172  RH  100%=      5-min Rain = 0
KAM3 261156Z 18002KT 17/17 A30 RMK A01 T01710171  RH  100%=      5-min Rain = 0
KAM3 261157Z 17002KT 17/17 A30 RMK A01 T01710171  RH  100%=      5-min Rain = 0
KAM3 261158Z 17001KT 17/17 A30 RMK A01 T01700170  RH  100%=      5-min Rain = 0
KAM3 261159Z 13000KT 17/17 A30 RMK A01 T01680168  RH  100%=      5-min Rain = 0
KAM3 261200Z 06001KT 17/17 A30 RMK A01 T01660166  RH  100%=      5-min Rain = 0
KAM3 261201Z 04003KT 16/16 A30 RMK A01 T01640164  RH  100%=      5-min Rain = 0
KAM3 261202Z 03004KT 16/16 A30 RMK A01 T01640164  RH  100%=      5-min Rain = 0
KAM3 261203Z 03004KT 16/16 A30 RMK A01 T01630164  RH  100%=      5-min Rain = 0
KAM3 261204Z 03004KT 16/16 A30 RMK A01 T01640164  RH  100%=      5-min Rain = 0
KAM3 261205Z 03003KT 17/17 A30 RMK A01 T01650165  RH  100%=      5-min Rain = 0
KAM3 261206Z 06002KT 17/17 A30 RMK A01 T01670167  RH  100%=      5-min Rain = 0
KAM3 261207Z 03001KT 17/17 A30 RMK A01 T01670168  RH  100%=      5-min Rain = 0
KAM3 261208Z 03003KT 17/17 A30 RMK A01 T01670168  RH  100%=      5-min Rain = 0
KAM3 261209Z 02003KT 17/17 A30 RMK A01 T01670167  RH  100%=      5-min Rain = 0
KAM3 261210Z 02002KT 17/17 A30 RMK A01 T01670167  RH  100%=      5-min Rain = 0
KAM3 261211Z 01002KT 17/17 A30 RMK A01 T01660167  RH  100%=      5-min Rain = 0
KAM3 261212Z 02002KT 17/17 A30 RMK A01 T01670167  RH  100%=      5-min Rain = 0
KAM3 261213Z 01003KT 17/17 A30 RMK A01 T01670168  RH  100%=      5-min Rain = 0
KAM3 261214Z 00002KT 17/17 A30 RMK A01 T01690169  RH  100%=      5-min Rain = 0
KAM3 261215Z 02001KT 17/17 A30 RMK A01 T01700170  RH  100%=      5-min Rain = 0
KAM3 261216Z 03002KT 17/17 A30 RMK A01 T01710171  RH  100%=      5-min Rain = 0
KAM3 261217Z 04002KT 17/17 A30 RMK A01 T01710172  RH  100%=      5-min Rain = 0
KAM3 261218Z 05003KT 17/17 A30 RMK A01 T01720172  RH  100%=      5-min Rain = 0
KAM3 261219Z 05004KT 17/17 A30 RMK A01 T01720172  RH  100%=      5-min Rain = 0
KAM3 261220Z 05004KT 17/17 A30 RMK A01 T01730173  RH  100%=      5-min Rain = 0
KAM3 261221Z 04005KT 17/17 A30 RMK A01 T01730173  RH  100%=      5-min Rain = 0
KAM3 261222Z 04005KT 18/18 A30 RMK A01 T01750175  RH  100%=      5-min Rain = 0
KAM3 261223Z 04005KT 18/18 A30 RMK A01 T01750175  RH  100%=      5-min Rain = 0
KAM3 261224Z 04005KT 18/18 A30 RMK A01 T01760176  RH  100%=      5-min Rain = 0
KAM3 261225Z 05004KT 18/18 A30 RMK A01 T01770177  RH  100%=      5-min Rain = 0
KAM3 261226Z 05004KT 18/18 A30 RMK A01 T01770177  RH  100%=      5-min Rain = 0
KAM3 261227Z 05003KT 18/18 A30 RMK A01 T01770177  RH  100%=      5-min Rain = 0
KAM3 261228Z 07003KT 18/18 A30 RMK A01 T01780178  RH  100%=      5-min Rain = 0
KAM3 261229Z 10003KT 18/18 A30 RMK A01 T01780179  RH  100%=      5-min Rain = 0
KAM3 261230Z 11003KT 18/18 A30 RMK A01 T01790179  RH  100%=      5-min Rain = 0
KAM3 261231Z 11004KT 18/18 A30 RMK A01 T01800180  RH  100%=      5-min Rain = 0
KAM3 261232Z 12004KT 18/18 A30 RMK A01 T01800180  RH  100%=      5-min Rain = 0
KAM3 261233Z 12004KT 18/18 A30 RMK A01 T01810181  RH  100%=      5-min Rain = 0
KAM3 261234Z 12004KT 18/18 A30 RMK A01 T01820182  RH  100%=      5-min Rain = 0
KAM3 261235Z 13004KT 18/18 A30 RMK A01 T01820182  RH  100%=      5-min Rain = 0
KAM3 261236Z 14005KT 18/18 A30 RMK A01 T01820183  RH  100%=      5-min Rain = 0
KAM3 261237Z 14005KT 18/18 A30 RMK A01 T01830183  RH  100%=      5-min Rain = 0
KAM3 261238Z 14004KT 18/18 A30 RMK A01 T01830183  RH  100%=      5-min Rain = 0
KAM3 261239Z 14005KT 18/18 A30 RMK A01 T01840184  RH  100%=      5-min Rain = 0
KAM3 261240Z 15005KT 18/18 A30 RMK A01 T01840184  RH  100%=      5-min Rain = 0
KAM3 261241Z 15005KT 18/18 A30 RMK A01 T01840184  RH  100%=      5-min Rain = 0
KAM3 261242Z 15005KT 18/18 A30 RMK A01 T01840184  RH  100%=      5-min Rain = 0
KAM3 261243Z 15005KT 18/18 A30 RMK A01 T01840184  RH  100%=      5-min Rain = 0
KAM3 261244Z 15006KT 18/18 A30 RMK A01 T01830184  RH  100%=      5-min Rain = 0
KAM3 261245Z 14004KT 18/18 A30 RMK A01 T01830183  RH  100%=      5-min Rain = 0
KAM3 261246Z 14004KT 18/18 A30 RMK A01 T01830183  RH  100%=      5-min Rain = 0
KAM3 261247Z 14004KT 18/18 A30 RMK A01 T01830183  RH  100%=      5-min Rain = 0
KAM3 261248Z 14005KT 18/18 A30 RMK A01 T01820182  RH  100%=      5-min Rain = 0
KAM3 261249Z 14005KT 18/18 A30 RMK A01 T01820182  RH  100%=      5-min Rain = 0
KAM3 261250Z 13004KT 18/18 A30 RMK A01 T01820182  RH  100%=      5-min Rain = 0
KAM3 261251Z 13004KT 18/18 A30 RMK A01 T01820182  RH  100%=      5-min Rain = 0
KAM3 261252Z 13003KT 18/18 A30 RMK A01 T01820182  RH  100%=      5-min Rain = 0
KAM3 261253Z 12003KT 18/18 A30 RMK A01 T01820182  RH  100%=      5-min Rain = 0
KAM3 261254Z 12003KT 18/18 A30 RMK A01 T01820182  RH  100%=      5-min Rain = 0
KAM3 261255Z 12003KT 18/18 A30 RMK A01 T01820182  RH  100%=      5-min Rain = 0
KAM3 261256Z 12003KT 18/18 A30 RMK A01 T01820182  RH  100%=      5-min Rain = 0
KAM3 261257Z 11003KT 18/18 A30 RMK A01 T01820182  RH  100%=      5-min Rain = 0
KAM3 261258Z 10003KT 18/18 A30 RMK A01 T01820182  RH  100%=      5-min Rain = 0
KAM3 261259Z 10003KT 18/18 A30 RMK A01 T01830183  RH  100%=      5-min Rain = 0
KAM3 261300Z 11003KT 18/18 A30 RMK A01 T01830183  RH  100%=      5-min Rain = 0
KAM3 261301Z 11003KT 18/18 A30 RMK A01 T01830183  RH  100%=      5-min Rain = 0
KAM3 261302Z 10004KT 18/18 A30 RMK A01 T01830183  RH  100%=      5-min Rain = 0
KAM3 261303Z 11004KT 18/18 A30 RMK A01 T01840184  RH  100%=      5-min Rain = 0
KAM3 261304Z 10004KT 18/18 A30 RMK A01 T01840184  RH  100%=      5-min Rain = 0
KAM3 261305Z 10004KT 18/18 A30 RMK A01 T01840184  RH  100%=      5-min Rain = 0
KAM3 261306Z 10003KT 19/19 A30 RMK A01 T01850185  RH  100%=      5-min Rain = 0
KAM3 261307Z 11004KT 19/19 A30 RMK A01 T01850185  RH  100%=      5-min Rain = 0
KAM3 261308Z 11004KT 19/19 A30 RMK A01 T01850185  RH  100%=      5-min Rain = 0
KAM3 261309Z 12004KT 19/19 A30 RMK A01 T01850186  RH  100%=      5-min Rain = 0
KAM3 261310Z 12005KT 19/19 A30 RMK A01 T01860186  RH  100%=      5-min Rain = 0
KAM3 261311Z 12005KT 19/19 A30 RMK A01 T01860186  RH  100%=      5-min Rain = 0
KAM3 261312Z 12006KT 19/19 A30 RMK A01 T01860186  RH  100%=      5-min Rain = 0
KAM3 261313Z 12005KT 19/19 A30 RMK A01 T01860186  RH  100%=      5-min Rain = 0
KAM3 261314Z 13006KT 19/19 A30 RMK A01 T01860186  RH  100%=      5-min Rain = 0
KAM3 261315Z 12005KT 19/19 A30 RMK A01 T01860186  RH  100%=      5-min Rain = 0
KAM3 261316Z 11006KT 19/19 A30 RMK A01 T01860186  RH  100%=      5-min Rain = 0
KAM3 261317Z 11005KT 19/19 A30 RMK A01 T01860187  RH  100%=      5-min Rain = 0
KAM3 261318Z 11006KT 19/19 A30 RMK A01 T01870187  RH  100%=      5-min Rain = 0
KAM3 261319Z 12006KT 19/19 A30 RMK A01 T01870187  RH  100%=      5-min Rain = 0
KAM3 261320Z 12007KT 19/19 A30 RMK A01 T01870187  RH  100%=      5-min Rain = 0
KAM3 261321Z 12007KT 19/19 A30 RMK A01 T01870187  RH  100%=      5-min Rain = 0
KAM3 261322Z 13005KT 19/19 A30 RMK A01 T01880188  RH  100%=      5-min Rain = 0
KAM3 261323Z 13006KT 19/19 A30 RMK A01 T01880188  RH  100%=      5-min Rain = 0
KAM3 261324Z 13006KT 19/19 A30 RMK A01 T01880188  RH  100%=      5-min Rain = 0
KAM3 261325Z 12006KT 19/19 A30 RMK A01 T01880189  RH  100%=      5-min Rain = 0
KAM3 261326Z 12006KT 19/19 A30 RMK A01 T01890189  RH  100%=      5-min Rain = 0
KAM3 261327Z 12005KT 19/19 A30 RMK A01 T01890189  RH  100%=      5-min Rain = 0
KAM3 261328Z 12006KT 19/19 A30 RMK A01 T01900190  RH  100%=      5-min Rain = 0
KAM3 261329Z 13006KT 19/19 A30 RMK A01 T01900190  RH  100%=      5-min Rain = 0
KAM3 261330Z 13006KT 19/19 A30 RMK A01 T01890189  RH  100%=      5-min Rain = 0
KAM3 261331Z 13005KT 19/19 A30 RMK A01 T01890190  RH  100%=      5-min Rain = 0
KAM3 261332Z 14005KT 19/19 A30 RMK A01 T01900190  RH  100%=      5-min Rain = 0
KAM3 261333Z 13005KT 19/19 A3001 RMK A01 T01900190  RH  100%=      5-min Rain = 0
KAM3 261334Z 14005KT 19/19 A3001 RMK A01 T01900191  RH  100%=      5-min Rain = 0
KAM3 261335Z 14005KT 19/19 A3001 RMK A01 T01910191  RH  100%=      5-min Rain = 0
KAM3 261336Z 13005KT 19/19 A3001 RMK A01 T01910191  RH  100%=      5-min Rain = 0
KAM3 261337Z 13006KT 19/19 A3001 RMK A01 T01910191  RH  100%=      5-min Rain = 0
KAM3 261338Z 13006KT 19/19 A3001 RMK A01 T01910191  RH  100%=      5-min Rain = 0
KAM3 261339Z 14005KT 19/19 A3001 RMK A01 T01910191  RH  100%=      5-min Rain = 0
KAM3 261340Z 13005KT 19/19 A3001 RMK A01 T01910191  RH  100%=      5-min Rain = 0
KAM3 261341Z 13005KT 19/19 A3001 RMK A01 T01910191  RH  100%=      5-min Rain = 0
KAM3 261342Z 13005KT 19/19 A3001 RMK A01 T01910192  RH  100%=      5-min Rain = 0
KAM3 261343Z 13005KT 19/19 A3001 RMK A01 T01920192  RH  100%=      5-min Rain = 0
KAM3 261344Z 13005KT 19/19 A30 RMK A01 T01920192  RH  100%=      5-min Rain = 0
KAM3 261345Z 12008KT 19/19 A30 RMK A01 T01920192  RH  100%=      5-min Rain = 0
KAM3 261346Z 12007KT 19/19 A30 RMK A01 T01920193  RH  100%=      5-min Rain = 0
KAM3 261347Z 12007KT 19/19 A3001 RMK A01 T01920193  RH  100%=      5-min Rain = 0
KAM3 261348Z 13006KT 19/19 A3001 RMK A01 T01930193  RH  100%=      5-min Rain = 0
KAM3 261349Z 13006KT 19/19 A3001 RMK A01 T01930193  RH  100%=      5-min Rain = 0
KAM3 261350Z 14006KT 19/19 A3001 RMK A01 T01940194  RH  100%=      5-min Rain = 0
KAM3 261351Z 13006KT 19/19 A3001 RMK A01 T01940194  RH  100%=      5-min Rain = 0
KAM3 261352Z 13007KT 19/19 A3001 RMK A01 T01940194  RH  100%=      5-min Rain = 0
KAM3 261353Z 14006KT 19/19 A3001 RMK A01 T01940194  RH  100%=      5-min Rain = 0
KAM3 261354Z 15007KT 20/20 A3001 RMK A01 T01950195  RH  100%=      5-min Rain = 0
KAM3 261355Z 14007KT 20/20 A3001 RMK A01 T01950195  RH  100%=      5-min Rain = 0
KAM3 261356Z 14006KT 20/20 A3001 RMK A01 T01950196  RH  100%=      5-min Rain = 0
KAM3 261357Z 15007KT 20/20 A3001 RMK A01 T01960196  RH  100%=      5-min Rain = 0
KAM3 261358Z 15008KT 20/20 A3001 RMK A01 T01960196  RH  100%=      5-min Rain = 0
KAM3 261359Z 15009KT 20/20 A3001 RMK A01 T01960196  RH  100%=      5-min Rain = 0
KAM3 261400Z 15008KT 20/20 A3001 RMK A01 T01970197  RH  100%=      5-min Rain = 0
KAM3 261401Z 15007KT 20/20 A3002 RMK A01 T01970197  RH  100%=      5-min Rain = 0
KAM3 261402Z 15009KT 20/20 A3002 RMK A01 T01970198  RH  100%=      5-min Rain = 0
KAM3 261403Z 15009KT 20/20 A3002 RMK A01 T01980198  RH  100%=      5-min Rain = 0
KAM3 261404Z 16007KT 20/20 A3002 RMK A01 T01980199  RH  100%=      5-min Rain = 0
KAM3 261405Z 15007KT 20/20 A3002 RMK A01 T01990200  RH  100%=      5-min Rain = 0
KAM3 261406Z 15009KT 20/20 A3002 RMK A01 T01990200  RH  100%=      5-min Rain = 0
KAM3 261407Z 16009KT 20/20 A3001 RMK A01 T02000200  RH  100%=      5-min Rain = 0
KAM3 261408Z 16008KT 20/20 A3001 RMK A01 T02000200  RH  100%=      5-min Rain = 0
KAM3 261409Z 16008KT 20/20 A3001 RMK A01 T02000200  RH  100%=      5-min Rain = 0
KAM3 261410Z 16009KT 20/20 A3001 RMK A01 T02010201  RH  100%=      5-min Rain = 0
KAM3 261411Z 16008KT 20/20 A3001 RMK A01 T02010201  RH  100%=      5-min Rain = 0
KAM3 261412Z 16008KT 20/20 A3001 RMK A01 T02020202  RH  100%=      5-min Rain = 0
KAM3 261413Z 16008KT 20/20 A3001 RMK A01 T02020202  RH  100%=      5-min Rain = 0
KAM3 261414Z 16009KT 20/20 A3001 RMK A01 T02020202  RH  100%=      5-min Rain = 0
KAM3 261415Z 16008KT 20/20 A3001 RMK A01 T02030203  RH  100%=      5-min Rain = 0
KAM3 261416Z 15006KT 20/20 A3001 RMK A01 T02030203  RH  100%=      5-min Rain = 0
KAM3 261417Z 17011KT 20/20 A3001 RMK A01 T02040204  RH  100%=      5-min Rain = 0
KAM3 261418Z 16010KT 20/20 A3001 RMK A01 T02040204  RH  100%=      5-min Rain = 0
KAM3 261419Z 16009KT 20/20 A3001 RMK A01 T02040204  RH  100%=      5-min Rain = 0
KAM3 261420Z 17006KT 20/20 A3001 RMK A01 T02040204  RH  100%=      5-min Rain = 0
KAM3 261421Z 17005KT 20/21 A3001 RMK A01 T02040205  RH  100%=      5-min Rain = 0
KAM3 261422Z 16007KT 21/21 A3001 RMK A01 T02050205  RH  100%=      5-min Rain = 0
KAM3 261423Z 16007KT 21/21 A3001 RMK A01 T02050206  RH  100%=      5-min Rain = 0
KAM3 261424Z 17007KT 21/21 A3001 RMK A01 T02060206  RH  100%=      5-min Rain = 0
KAM3 261425Z 17007KT 21/21 A3001 RMK A01 T02060206  RH  100%=      5-min Rain = 0
KAM3 261426Z 16005KT 21/21 A3001 RMK A01 T02060207  RH  100%=      5-min Rain = 0
KAM3 261427Z 16008KT 21/21 A3001 RMK A01 T02070207  RH  100%=      5-min Rain = 0
KAM3 261428Z 16008KT 21/21 A3002 RMK A01 T02070207  RH  100%=      5-min Rain = 0
KAM3 261429Z 17009KT 21/21 A3002 RMK A01 T02070207  RH  100%=      5-min Rain = 0
KAM3 261430Z 16008KT 21/21 A3002 RMK A01 T02070207  RH  100%=      5-min Rain = 0
KAM3 261431Z 16009KT 21/21 A3002 RMK A01 T02070207  RH  100%=      5-min Rain = 0
KAM3 261432Z 16009KT 21/21 A3002 RMK A01 T02070207  RH  100%=      5-min Rain = 0
KAM3 261433Z 16009KT 21/21 A3002 RMK A01 T02070207  RH  100%=      5-min Rain = 0
KAM3 261434Z 16008KT 21/21 A3002 RMK A01 T02060207  RH  100%=      5-min Rain = 0
KAM3 261435Z 16009KT 21/21 A3002 RMK A01 T02060206  RH  100%=      5-min Rain = 0
KAM3 261436Z 17009KT 21/21 A3002 RMK A01 T02060207  RH  100%=      5-min Rain = 0
KAM3 261437Z 17008KT 21/21 A3002 RMK A01 T02060206  RH  100%=      5-min Rain = 0
KAM3 261438Z 16008KT 21/21 A3002 RMK A01 T02060206  RH  100%=      5-min Rain = 0
KAM3 261439Z 16010KT 21/21 A3002 RMK A01 T02060206  RH  100%=      5-min Rain = 0
KAM3 261440Z 15009KT 21/21 A3002 RMK A01 T02060206  RH  100%=      5-min Rain = 0
KAM3 261441Z 15008KT 21/21 A3002 RMK A01 T02060206  RH  100%=      5-min Rain = 0
KAM3 261442Z 15009KT 21/21 A3002 RMK A01 T02060206  RH  100%=      5-min Rain = 0
KAM3 261443Z 15008KT 21/21 A3002 RMK A01 T02060206  RH  100%=      5-min Rain = 0
KAM3 261444Z 16007KT 21/21 A3002 RMK A01 T02060206  RH  100%=      5-min Rain = 0
KAM3 261445Z 16007KT 21/21 A3002 RMK A01 T02060206  RH  100%=      5-min Rain = 0
KAM3 261446Z 16007KT 21/21 A3002 RMK A01 T02060206  RH  100%=      5-min Rain = 0
KAM3 261447Z 16009KT 21/21 A3002 RMK A01 T02060206  RH  100%=      5-min Rain = 0
KAM3 261448Z 16010KT 21/21 A3002 RMK A01 T02060207  RH  100%=      5-min Rain = 0
KAM3 261449Z 16009KT 21/21 A3002 RMK A01 T02060206  RH  100%=      5-min Rain = 0
KAM3 261450Z 17009KT 21/21 A3002 RMK A01 T02060206  RH  100%=      5-min Rain = 0
KAM3 261451Z 16007KT 21/21 A3002 RMK A01 T02060206  RH  100%=      5-min Rain = 0
KAM3 261452Z 16008KT 21/21 A3002 RMK A01 T02060206  RH  100%=      5-min Rain = 0
KAM3 261453Z 16008KT 21/21 A3002 RMK A01 T02060206  RH  100%=      5-min Rain = 0
KAM3 261454Z 16010KT 21/21 A3002 RMK A01 T02070207  RH  100%=      5-min Rain = 0
KAM3 261455Z 16011KT 21/21 A3002 RMK A01 T02070207  RH  100%=      5-min Rain = 0
KAM3 261456Z 17010KT 21/21 A3002 RMK A01 T02060207  RH  100%=      5-min Rain = 0
KAM3 261457Z 16008KT 21/21 A3002 RMK A01 T02060207  RH  100%=      5-min Rain = 0
KAM3 261458Z 16008KT 21/21 A3002 RMK A01 T02060207  RH  100%=      5-min Rain = 0
KAM3 261459Z 16010KT 21/21 A3002 RMK A01 T02060207  RH  100%=      5-min Rain = 0
KAM3 261500Z 16009KT 21/21 A3002 RMK A01 T02070207  RH  100%=      5-min Rain = 0
KAM3 261501Z 17009KT 21/21 A3002 RMK A01 T02070207  RH  100%=      5-min Rain = 0
KAM3 261502Z 15011KT 21/21 A3002 RMK A01 T02070207  RH  100%=      5-min Rain = 0
KAM3 261503Z 15011KT 21/21 A3002 RMK A01 T02070207  RH  100%=      5-min Rain = 0
KAM3 261504Z 16011KT 21/21 A3002 RMK A01 T02070207  RH  100%=      5-min Rain = 0
KAM3 261505Z 16013KT 21/21 A3002 RMK A01 T02080208  RH  100%=      5-min Rain = 0
KAM3 261506Z 16013KT 21/21 A3002 RMK A01 T02070207  RH  100%=      5-min Rain = 0
KAM3 261507Z 16011KT 21/21 A3002 RMK A01 T02070207  RH  100%=      5-min Rain = 0
KAM3 261508Z 16012KT 21/21 A3002 RMK A01 T02070208  RH  100%=      5-min Rain = 0
KAM3 261509Z 16010KT 21/21 A3002 RMK A01 T02080208  RH  100%=      5-min Rain = 0
KAM3 261510Z 16010KT 21/21 A3001 RMK A01 T02080208  RH  100%=      5-min Rain = 0
KAM3 261511Z 16010KT 21/21 A3002 RMK A01 T02080208  RH  100%=      5-min Rain = 0
KAM3 261512Z 16010KT 21/21 A3001 RMK A01 T02080208  RH  100%=      5-min Rain = 0
KAM3 261513Z 16010KT 21/21 A3001 RMK A01 T02080208  RH  100%=      5-min Rain = 0
KAM3 261514Z 17010KT 21/21 A3001 RMK A01 T02080208  RH  100%=      5-min Rain = 0
KAM3 261515Z 16008KT 21/21 A3001 RMK A01 T02090209  RH  100%=      5-min Rain = 0
KAM3 261516Z 16006KT 21/21 A3001 RMK A01 T02100210  RH  100%=      5-min Rain = 0
KAM3 261517Z 16008KT 21/21 A3001 RMK A01 T02110211  RH  100%=      5-min Rain = 0
KAM3 261518Z 16009G14KT 21/21 A3001 RMK A01 T02120210  RH  099%=      5-min Rain = 0
KAM3 261519Z 17010KT 21/21 A3001 RMK A01 T02120209  RH  098%=      5-min Rain = 0
KAM3 261520Z 16010KT 21/21 A3001 RMK A01 T02130212  RH  099%=      5-min Rain = 0
KAM3 261521Z 15011KT 21/21 A3001 RMK A01 T02140208  RH  096%=      5-min Rain = 0
KAM3 261522Z 15011KT 21/21 A3001 RMK A01 T02140209  RH  097%=      5-min Rain = 0
KAM3 261523Z 16011KT 21/21 A3001 RMK A01 T02140209  RH  097%=      5-min Rain = 0
KAM3 261524Z 15010KT 22/21 A3001 RMK A01 T02150207  RH  095%=      5-min Rain = 0
KAM3 261525Z 15010KT 22/21 A3001 RMK A01 T02150206  RH  094%=      5-min Rain = 0
KAM3 261526Z 16008KT 22/21 A3001 RMK A01 T02150210  RH  097%=      5-min Rain = 0
KAM3 261527Z 16008KT 22/21 A3001 RMK A01 T02150211  RH  098%=      5-min Rain = 0
KAM3 261528Z 16009KT 21/21 A3001 RMK A01 T02140208  RH  096%=      5-min Rain = 0
KAM3 261529Z 16008KT 22/21 A3001 RMK A01 T02150209  RH  096%=      5-min Rain = 0
KAM3 261530Z 17010KT 22/21 A3001 RMK A01 T02150210  RH  097%=      5-min Rain = 0
KAM3 261531Z 17011KT 22/21 A3001 RMK A01 T02150208  RH  096%=      5-min Rain = 0
KAM3 261532Z 16009KT 21/21 A3001 RMK A01 T02140207  RH  096%=      5-min Rain = 0
KAM3 261533Z 15009KT 21/21 A3001 RMK A01 T02140211  RH  098%=      5-min Rain = 0
KAM3 261534Z 16010KT 21/21 A3001 RMK A01 T02140210  RH  097%=      5-min Rain = 0
KAM3 261535Z 15011KT 21/21 A3001 RMK A01 T02140209  RH  097%=      5-min Rain = 0
KAM3 261536Z 15012KT 21/21 A3001 RMK A01 T02140209  RH  097%=      5-min Rain = 0
KAM3 261537Z 17014KT 21/21 A3001 RMK A01 T02140209  RH  097%=      5-min Rain = 0
KAM3 261538Z 17011KT 21/21 A3001 RMK A01 T02140207  RH  096%=      5-min Rain = 0
KAM3 261539Z 15011KT 21/21 A3001 RMK A01 T02130208  RH  097%=      5-min Rain = 0
KAM3 261540Z 16012KT 21/21 A30 RMK A01 T02130207  RH  096%=      5-min Rain = 0
KAM3 261541Z 16010KT 21/21 A30 RMK A01 T02140210  RH  098%=      5-min Rain = 0
KAM3 261542Z 16010KT 21/21 A30 RMK A01 T02140208  RH  096%=      5-min Rain = 0
KAM3 261543Z 16012KT 22/21 A30 RMK A01 T02150210  RH  097%=      5-min Rain = 0
KAM3 261544Z 16013KT 22/21 A30 RMK A01 T02150207  RH  095%=      5-min Rain = 0
KAM3 261545Z 16012KT 22/21 A30 RMK A01 T02150205  RH  094%=      5-min Rain = 0
KAM3 261546Z 16010KT 22/21 A30 RMK A01 T02150205  RH  094%=      5-min Rain = 0
KAM3 261547Z 15011KT 22/21 A30 RMK A01 T02150208  RH  096%=      5-min Rain = 0
KAM3 261548Z 16011KT 22/21 A30 RMK A01 T02150207  RH  095%=      5-min Rain = 0
KAM3 261549Z 16010KT 21/21 A30 RMK A01 T02140207  RH  095%=      5-min Rain = 0
KAM3 261550Z 16010KT 21/21 A30 RMK A01 T02140207  RH  095%=      5-min Rain = 0
KAM3 261551Z 16009KT 21/21 A30 RMK A01 T02140209  RH  097%=      5-min Rain = 0
KAM3 261552Z 16008KT 21/21 A30 RMK A01 T02140209  RH  097%=      5-min Rain = 0
KAM3 261553Z 17011KT 22/21 A30 RMK A01 T02150208  RH  096%=      5-min Rain = 0
KAM3 261554Z 17011KT 22/21 A30 RMK A01 T02150208  RH  096%=      5-min Rain = 0
KAM3 261555Z 17009KT 22/21 A30 RMK A01 T02150208  RH  096%=      5-min Rain = 0
KAM3 261556Z 17010KT 22/21 A30 RMK A01 T02150209  RH  096%=      5-min Rain = 0
KAM3 261557Z 16009KT 22/21 A30 RMK A01 T02150210  RH  097%=      5-min Rain = 0
KAM3 261558Z 17008KT 22/21 A30 RMK A01 T02150211  RH  097%=      5-min Rain = 0
KAM3 261559Z 17010KT 22/21 A30 RMK A01 T02160208  RH  095%=      5-min Rain = 0
KAM3 261600Z 16008KT 22/21 A30 RMK A01 T02160209  RH  096%=      5-min Rain = 0
KAM3 261601Z 17009KT 22/21 A30 RMK A01 T02160209  RH  096%=      5-min Rain = 0
KAM3 261602Z 17010KT 22/21 A30 RMK A01 T02160208  RH  096%=      5-min Rain = 0
KAM3 261603Z 17009KT 22/21 A30 RMK A01 T02160210  RH  097%=      5-min Rain = 0
KAM3 261604Z 17008KT 22/21 A30 RMK A01 T02160209  RH  096%=      5-min Rain = 0
KAM3 261605Z 17011KT 22/21 A30 RMK A01 T02160209  RH  096%=      5-min Rain = 0
KAM3 261606Z 17010KT 22/21 A30 RMK A01 T02150208  RH  095%=      5-min Rain = 0
KAM3 261607Z 17011KT 22/21 A30 RMK A01 T02160209  RH  096%=      5-min Rain = 0
KAM3 261608Z 17011KT 22/21 A30 RMK A01 T02160208  RH  095%=      5-min Rain = 0
KAM3 261609Z 16011KT 22/21 A30 RMK A01 T02160206  RH  094%=      5-min Rain = 0
KAM3 261610Z 16010KT 22/21 A30 RMK A01 T02150207  RH  095%=      5-min Rain = 0
KAM3 261611Z 16009KT 22/21 A30 RMK A01 T02150209  RH  096%=      5-min Rain = 0
KAM3 261612Z 16010KT 22/21 A30 RMK A01 T02150207  RH  095%=      5-min Rain = 0
KAM3 261613Z 16011KT 22/21 A30 RMK A01 T02150208  RH  096%=      5-min Rain = 0
KAM3 261614Z 15010G15KT 22/21 A30 RMK A01 T02150208  RH  096%=      5-min Rain = 0
KAM3 261615Z 16011KT 21/21 A30 RMK A01 T02140208  RH  096%=      5-min Rain = 0
KAM3 261616Z 16012KT 21/21 A30 RMK A01 T02140208  RH  096%=      5-min Rain = 0
KAM3 261617Z 16009KT 21/21 A30 RMK A01 T02140209  RH  097%=      5-min Rain = 0
KAM3 261618Z 16009KT 21/21 A30 RMK A01 T02140208  RH  096%=      5-min Rain = 0
KAM3 261619Z 16009KT 21/21 A30 RMK A01 T02140210  RH  097%=      5-min Rain = 0
KAM3 261620Z 17010KT 22/21 A30 RMK A01 T02150208  RH  096%=      5-min Rain = 0
KAM3 261621Z 17011KT 21/21 A30 RMK A01 T02140207  RH  096%=      5-min Rain = 0
KAM3 261622Z 16012KT 21/21 A30 RMK A01 T02140206  RH  095%=      5-min Rain = 0
KAM3 261623Z 17011KT 21/21 A30 RMK A01 T02140206  RH  095%=      5-min Rain = 0
KAM3 261624Z 17010KT 21/21 A30 RMK A01 T02140207  RH  096%=      5-min Rain = 0
KAM3 261625Z 16008KT 21/21 A30 RMK A01 T02140208  RH  096%=      5-min Rain = 0
KAM3 261626Z 17008KT 21/21 A30 RMK A01 T02140209  RH  097%=      5-min Rain = 0
KAM3 261627Z 16007KT 21/21 A30 RMK A01 T02140211  RH  098%=      5-min Rain = 0
KAM3 261628Z 16010KT 21/21 A30 RMK A01 T02140209  RH  097%=      5-min Rain = 0
KAM3 261629Z 16009KT 21/21 A30 RMK A01 T02140211  RH  098%=      5-min Rain = 0
KAM3 261630Z 16009KT 21/21 A30 RMK A01 T02140210  RH  098%=      5-min Rain = 0
KAM3 261631Z 16008KT 21/21 A30 RMK A01 T02140211  RH  098%=      5-min Rain = 0
KAM3 261632Z 16006KT 21/21 A30 RMK A01 T02140212  RH  099%=      5-min Rain = 0
KAM3 261633Z 16007KT 21/21 A30 RMK A01 T02140212  RH  099%=      5-min Rain = 0
KAM3 261634Z 16006KT 21/21 A30 RMK A01 T02140213  RH  099%=      5-min Rain = 0
KAM3 261635Z 16007KT 21/21 A30 RMK A01 T02140213  RH  099%=      5-min Rain = 0
KAM3 261636Z 17009KT 21/21 A30 RMK A01 T02140210  RH  098%=      5-min Rain = 0
KAM3 261637Z 17007KT 21/21 A30 RMK A01 T02140213  RH  099%=      5-min Rain = 0
KAM3 261638Z 17008KT 21/21 A30 RMK A01 T02140214  RH  100%=      5-min Rain = 0
KAM3 261639Z 18008KT 21/21 A30 RMK A01 T02140212  RH  098%=      5-min Rain = 0
KAM3 261640Z 17010KT 22/21 A30 RMK A01 T02150210  RH  097%=      5-min Rain = 0
KAM3 261641Z 17010KT 22/21 A30 RMK A01 T02150208  RH  095%=      5-min Rain = 0
KAM3 261642Z 17010KT 22/21 A30 RMK A01 T02160208  RH  095%=      5-min Rain = 0
KAM3 261643Z 16008KT 22/21 A30 RMK A01 T02160209  RH  096%=      5-min Rain = 0
KAM3 261644Z 17008KT 22/21 A30 RMK A01 T02160211  RH  097%=      5-min Rain = 0
KAM3 261645Z 17008KT 22/21 A30 RMK A01 T02160210  RH  096%=      5-min Rain = 0
KAM3 261646Z 17010KT 22/21 A30 RMK A01 T02160207  RH  095%=      5-min Rain = 0
KAM3 261647Z 17007KT 22/21 A30 RMK A01 T02160209  RH  096%=      5-min Rain = 0
KAM3 261648Z 17010KT 22/21 A30 RMK A01 T02160209  RH  096%=      5-min Rain = 0
KAM3 261649Z 17010KT 22/21 A30 RMK A01 T02150208  RH  096%=      5-min Rain = 0
KAM3 261650Z 17010KT 22/21 A30 RMK A01 T02150209  RH  097%=      5-min Rain = 0
KAM3 261651Z 17010KT 21/21 A30 RMK A01 T02140210  RH  097%=      5-min Rain = 0
KAM3 261652Z 18011KT 21/21 A30 RMK A01 T02140209  RH  097%=      5-min Rain = 0
KAM3 261653Z 17008KT 21/21 A30 RMK A01 T02140209  RH  097%=      5-min Rain = 0
KAM3 261654Z 17007KT 21/21 A30 RMK A01 T02140210  RH  098%=      5-min Rain = 0
KAM3 261655Z 17007KT 21/21 A30 RMK A01 T02140212  RH  099%=      5-min Rain = 0
KAM3 261656Z 17007KT 22/21 A30 RMK A01 T02150212  RH  098%=      5-min Rain = 0
KAM3 261657Z 17007KT 22/21 A30 RMK A01 T02150212  RH  098%=      5-min Rain = 0
KAM3 261658Z 16008KT 22/21 A30 RMK A01 T02160213  RH  098%=      5-min Rain = 0
KAM3 261659Z 17008KT 22/21 A30 RMK A01 T02170211  RH  097%=      5-min Rain = 0
KAM3 261700Z 16010KT 22/21 A30 RMK A01 T02170208  RH  095%=      5-min Rain = 0
KAM3 261701Z 17008KT 22/21 A30 RMK A01 T02180206  RH  093%=      5-min Rain = 0
KAM3 261702Z 17007KT 22/21 A30 RMK A01 T02180210  RH  095%=      5-min Rain = 0
KAM3 261703Z 17009KT 22/21 A30 RMK A01 T02190207  RH  093%=      5-min Rain = 0
KAM3 261704Z 16008KT 22/21 A30 RMK A01 T02200207  RH  093%=      5-min Rain = 0
KAM3 261705Z 17008KT 22/21 A30 RMK A01 T02200210  RH  094%=      5-min Rain = 0
KAM3 261706Z 17008KT 22/21 A30 RMK A01 T02200209  RH  093%=      5-min Rain = 0
KAM3 261707Z 18008KT 22/21 A30 RMK A01 T02210210  RH  094%=      5-min Rain = 0
KAM3 261708Z 17010KT 22/21 A30 RMK A01 T02210207  RH  092%=      5-min Rain = 0
KAM3 261709Z 17010KT 22/21 A30 RMK A01 T02210206  RH  091%=      5-min Rain = 0
KAM3 261710Z 17009KT 22/21 A30 RMK A01 T02210206  RH  091%=      5-min Rain = 0
KAM3 261711Z 16009KT 22/21 A2999 RMK A01 T02210208  RH  092%=      5-min Rain = 0
KAM3 261712Z 17010KT 22/21 A2999 RMK A01 T02220211  RH  093%=      5-min Rain = 0
KAM3 261713Z 17009KT 22/21 A2999 RMK A01 T02230208  RH  091%=      5-min Rain = 0
KAM3 261714Z 16008KT 22/21 A2999 RMK A01 T02240209  RH  091%=      5-min Rain = 0
KAM3 261715Z 16009KT 23/21 A2999 RMK A01 T02250207  RH  090%=      5-min Rain = 0
KAM3 261716Z 16011KT 23/20 A2999 RMK A01 T02260203  RH  087%=      5-min Rain = 0
KAM3 261717Z 16010KT 23/20 A2999 RMK A01 T02260204  RH  088%=      5-min Rain = 0
KAM3 261718Z 17010KT 23/20 A2999 RMK A01 T02250204  RH  087%=      5-min Rain = 0
KAM3 261719Z 16010KT 23/20 A2999 RMK A01 T02250204  RH  088%=      5-min Rain = 0
KAM3 261720Z 16013KT 23/20 A2999 RMK A01 T02250202  RH  087%=      5-min Rain = 0
KAM3 261721Z 16012KT 22/20 A2999 RMK A01 T02240202  RH  087%=      5-min Rain = 0
KAM3 261722Z 16011KT 22/20 A2999 RMK A01 T02230203  RH  088%=      5-min Rain = 0
KAM3 261723Z 16011KT 22/20 A2999 RMK A01 T02230202  RH  088%=      5-min Rain = 0
KAM3 261724Z 16010KT 22/20 A2999 RMK A01 T02220203  RH  089%=      5-min Rain = 0
KAM3 261725Z 17011KT 22/20 A2999 RMK A01 T02220203  RH  089%=      5-min Rain = 0
KAM3 261726Z 16011KT 22/20 A30 RMK A01 T02210202  RH  089%=      5-min Rain = 0
KAM3 261727Z 17010KT 22/20 A30 RMK A01 T02200202  RH  089%=      5-min Rain = 0
KAM3 261728Z 17009KT 22/20 A30 RMK A01 T02200204  RH  090%=      5-min Rain = 0
KAM3 261729Z 17011KT 22/20 A30 RMK A01 T02200204  RH  091%=      5-min Rain = 0
KAM3 261730Z 18009KT 22/20 A30 RMK A01 T02200203  RH  090%=      5-min Rain = 0
KAM3 261731Z 18009G14KT 22/21 A30 RMK A01 T02200205  RH  091%=      5-min Rain = 0
KAM3 261732Z 17010KT 22/20 A30 RMK A01 T02200204  RH  091%=      5-min Rain = 0
KAM3 261733Z 17010KT 22/20 A30 RMK A01 T02200203  RH  090%=      5-min Rain = 0
KAM3 261734Z 17012KT 22/20 A30 RMK A01 T02190202  RH  090%=      5-min Rain = 0
KAM3 261735Z 17011KT 22/20 A30 RMK A01 T02190201  RH  090%=      5-min Rain = 0
KAM3 261736Z 17010KT 22/20 A30 RMK A01 T02190202  RH  090%=      5-min Rain = 0
KAM3 261737Z 17010KT 22/20 A30 RMK A01 T02180203  RH  091%=      5-min Rain = 0
KAM3 261738Z 17012KT 22/20 A30 RMK A01 T02180203  RH  091%=      5-min Rain = 0
KAM3 261739Z 17011KT 22/20 A30 RMK A01 T02170202  RH  091%=      5-min Rain = 0
KAM3 261740Z 18009KT 22/21 A30 RMK A01 T02170205  RH  093%=      5-min Rain = 0
KAM3 261741Z 17011KT 22/21 A30 RMK A01 T02160206  RH  094%=      5-min Rain = 0
KAM3 261742Z 18010KT 22/20 A30 RMK A01 T02160204  RH  093%=      5-min Rain = 0
KAM3 261743Z 17011KT 22/21 A2999 RMK A01 T02160205  RH  093%=      5-min Rain = 0
KAM3 261744Z 17010KT 22/21 A2999 RMK A01 T02160206  RH  094%=      5-min Rain = 0
KAM3 261745Z 17011KT 22/20 A2999 RMK A01 T02160204  RH  093%=      5-min Rain = 0
KAM3 261746Z 18009KT 22/21 A2999 RMK A01 T02160205  RH  093%=      5-min Rain = 0
KAM3 261747Z 17010G15KT 22/21 A2999 RMK A01 T02160206  RH  094%=      5-min Rain = 0
KAM3 261748Z 17010KT 22/21 A2999 RMK A01 T02160207  RH  095%=      5-min Rain = 0
KAM3 261749Z 17011KT 22/21 A2999 RMK A01 T02160205  RH  093%=      5-min Rain = 0
KAM3 261750Z 16011KT 22/20 A2999 RMK A01 T02160203  RH  092%=      5-min Rain = 0
KAM3 261751Z 16009KT 22/21 A2999 RMK A01 T02160205  RH  093%=      5-min Rain = 0
KAM3 261752Z 17010KT 22/20 A2999 RMK A01 T02170204  RH  092%=      5-min Rain = 0
KAM3 261753Z 17009KT 22/21 A2999 RMK A01 T02170205  RH  093%=      5-min Rain = 0
KAM3 261754Z 17010KT 22/21 A2999 RMK A01 T02170205  RH  093%=      5-min Rain = 0
KAM3 261755Z 18011KT 22/20 A2999 RMK A01 T02170203  RH  092%=      5-min Rain = 0
KAM3 261756Z 17008KT 22/21 A2999 RMK A01 T02170206  RH  093%=      5-min Rain = 0
KAM3 261757Z 16009KT 22/21 A2999 RMK A01 T02170208  RH  094%=      5-min Rain = 0
KAM3 261758Z 17011KT 22/21 A2999 RMK A01 T02170205  RH  093%=      5-min Rain = 0
KAM3 261759Z 16011KT 22/21 A2999 RMK A01 T02170206  RH  094%=      5-min Rain = 0
KAM3 261800Z 17011KT 22/21 A2999 RMK A01 T02170205  RH  093%=      5-min Rain = 0
KAM3 261801Z 16011KT 22/21 A2999 RMK A01 T02160206  RH  094%=      5-min Rain = 0
KAM3 261802Z 17009KT 22/21 A2999 RMK A01 T02160208  RH  095%=      5-min Rain = 0
KAM3 261803Z 17012KT 22/21 A2999 RMK A01 T02160207  RH  094%=      5-min Rain = 0
KAM3 261804Z 16010KT 22/21 A2999 RMK A01 T02160207  RH  095%=      5-min Rain = 0
KAM3 261805Z 17010KT 22/21 A2999 RMK A01 T02160207  RH  094%=      5-min Rain = 0
KAM3 261806Z 17010KT 22/21 A2999 RMK A01 T02150208  RH  095%=      5-min Rain = 0
KAM3 261807Z 15009KT 22/21 A2999 RMK A01 T02160209  RH  096%=      5-min Rain = 0
KAM3 261808Z 17009KT 22/21 A2999 RMK A01 T02160210  RH  096%=      5-min Rain = 0
KAM3 261809Z 16007KT 22/21 A2999 RMK A01 T02170208  RH  095%=      5-min Rain = 0
KAM3 261810Z 17009KT 22/21 A2999 RMK A01 T02170210  RH  095%=      5-min Rain = 0
KAM3 261811Z 16006KT 22/21 A2999 RMK A01 T02180210  RH  095%=      5-min Rain = 0
KAM3 261812Z 16008G13KT 22/21 A2999 RMK A01 T02180213  RH  096%=      5-min Rain = 0
KAM3 261813Z 16011KT 22/21 A2998 RMK A01 T02190206  RH  093%=      5-min Rain = 0
KAM3 261814Z 16011KT 22/21 A2998 RMK A01 T02190205  RH  092%=      5-min Rain = 0
KAM3 261815Z 15010KT 22/20 A2998 RMK A01 T02190204  RH  091%=      5-min Rain = 0
KAM3 261816Z 17010KT 22/21 A2998 RMK A01 T02190205  RH  092%=      5-min Rain = 0
KAM3 261817Z 17010KT 22/21 A2998 RMK A01 T02190205  RH  092%=      5-min Rain = 0
KAM3 261818Z 18010KT 22/21 A2998 RMK A01 T02190205  RH  092%=      5-min Rain = 0
KAM3 261819Z 16009KT 22/21 A2998 RMK A01 T02200207  RH  092%=      5-min Rain = 0
KAM3 261820Z 16010KT 22/21 A2998 RMK A01 T02200207  RH  092%=      5-min Rain = 0
KAM3 261821Z 16009KT 22/21 A2998 RMK A01 T02200206  RH  092%=      5-min Rain = 0
KAM3 261822Z 17010KT 22/21 A2998 RMK A01 T02200207  RH  092%=      5-min Rain = 0
KAM3 261823Z 17010KT 22/20 A2998 RMK A01 T02200204  RH  091%=      5-min Rain = 0
KAM3 261824Z 16008KT 22/21 A2998 RMK A01 T02200206  RH  092%=      5-min Rain = 0
KAM3 261825Z 16010KT 22/21 A2998 RMK A01 T02190206  RH  092%=      5-min Rain = 0
KAM3 261826Z 17010KT 22/21 A2998 RMK A01 T02190205  RH  092%=      5-min Rain = 0
KAM3 261827Z 17010KT 22/21 A2998 RMK A01 T02180207  RH  093%=      5-min Rain = 0
KAM3 261828Z 17010KT 22/21 A2998 RMK A01 T02170209  RH  095%=      5-min Rain = 0
KAM3 261829Z 17011KT 22/21 A2998 RMK A01 T02170211  RH  096%=      5-min Rain = 0
KAM3 261830Z 17012KT 22/21 A2998 RMK A01 T02160212  RH  098%=      5-min Rain = 0
KAM3 261831Z 16010KT 22/21 A2998 RMK A01 T02160212  RH  098%=      5-min Rain = 0
KAM3 261832Z 15007KT 22/22 A2998 RMK A01 T02160216  RH  100%=      5-min Rain = 0
KAM3 261833Z 16009KT 22/22 A2998 RMK A01 T02160216  RH  100%=      5-min Rain = 0
KAM3 261834Z 16011KT 22/21 A2998 RMK A01 T02160214  RH  099%=      5-min Rain = 0
KAM3 261835Z 16012KT 22/21 A2998 RMK A01 T02170212  RH  097%=      5-min Rain = 0
KAM3 261836Z 17011KT 22/21 A2997 RMK A01 T02180211  RH  096%=      5-min Rain = 0
KAM3 261837Z 17013KT 22/21 A2997 RMK A01 T02180207  RH  093%=      5-min Rain = 0
KAM3 261838Z 17011KT 22/21 A2997 RMK A01 T02190205  RH  092%=      5-min Rain = 0
KAM3 261839Z 17010KT 22/21 A2997 RMK A01 T02200206  RH  092%=      5-min Rain = 0
KAM3 261840Z 16012KT 22/21 A2997 RMK A01 T02200206  RH  092%=      5-min Rain = 0
KAM3 261841Z 16012KT 22/20 A2997 RMK A01 T02200203  RH  090%=      5-min Rain = 0
KAM3 261842Z 16011G17KT 22/20 A2997 RMK A01 T02200204  RH  091%=      5-min Rain = 0
KAM3 261843Z 16013KT 22/20 A2997 RMK A01 T02200201  RH  089%=      5-min Rain = 0
KAM3 261844Z 17014KT 22/20 A2997 RMK A01 T02200202  RH  089%=      5-min Rain = 0
KAM3 261845Z 17012KT 22/20 A2997 RMK A01 T02200202  RH  090%=      5-min Rain = 0
KAM3 261846Z 17010KT 22/20 A2997 RMK A01 T02200203  RH  090%=      5-min Rain = 0
KAM3 261847Z 16010KT 22/21 A2998 RMK A01 T02200205  RH  091%=      5-min Rain = 0
KAM3 261848Z 16011KT 22/21 A2997 RMK A01 T02200206  RH  092%=      5-min Rain = 0
KAM3 261849Z 15012KT 22/21 A2997 RMK A01 T02200205  RH  091%=      5-min Rain = 0
KAM3 261850Z 16010KT 22/21 A2997 RMK A01 T02200206  RH  091%=      5-min Rain = 0
KAM3 261851Z 16014KT 22/21 A2997 RMK A01 T02200205  RH  091%=      5-min Rain = 0
KAM3 261852Z 15011KT 22/21 A2997 RMK A01 T02200205  RH  091%=      5-min Rain = 0
KAM3 261853Z 16012KT 22/21 A2997 RMK A01 T02200205  RH  091%=      5-min Rain = 0
KAM3 261854Z 16011KT 22/21 A2996 RMK A01 T02200206  RH  092%=      5-min Rain = 0
KAM3 261855Z 15011KT 22/21 A2996 RMK A01 T02200209  RH  093%=      5-min Rain = 0
KAM3 261856Z 16009KT 22/21 A2996 RMK A01 T02200208  RH  093%=      5-min Rain = 0
KAM3 261857Z 17011KT 22/21 A2996 RMK A01 T02200207  RH  092%=      5-min Rain = 0
KAM3 261858Z 16011KT 22/20 A2996 RMK A01 T02210204  RH  090%=      5-min Rain = 0
KAM3 261859Z 15011KT 22/21 A2996 RMK A01 T02210206  RH  091%=      5-min Rain = 0
KAM3 261900Z 16011KT 22/21 A2996 RMK A01 T02220205  RH  090%=      5-min Rain = 0
KAM3 261901Z 16012KT 22/21 A2996 RMK A01 T02220205  RH  090%=      5-min Rain = 0
KAM3 261902Z 15013G19KT 22/21 A2996 RMK A01 T02230206  RH  090%=      5-min Rain = 0
KAM3 261903Z 16014KT 22/20 A2996 RMK A01 T02240204  RH  089%=      5-min Rain = 0
KAM3 261904Z 16011KT 22/20 A2996 RMK A01 T02240203  RH  088%=      5-min Rain = 0
KAM3 261905Z 16011KT 23/21 A2996 RMK A01 T02250205  RH  088%=      5-min Rain = 0
KAM3 261906Z 14010KT 23/21 A2996 RMK A01 T02250207  RH  089%=      5-min Rain = 0
KAM3 261907Z 15010KT 23/21 A2996 RMK A01 T02260208  RH  089%=      5-min Rain = 0
KAM3 261908Z 14012KT 23/21 A2996 RMK A01 T02260207  RH  089%=      5-min Rain = 0
KAM3 261909Z 14014KT 23/21 A2995 RMK A01 T02260206  RH  088%=      5-min Rain = 0
KAM3 261910Z 13014KT 23/21 A2995 RMK A01 T02250206  RH  089%=      5-min Rain = 0
KAM3 261911Z 14013KT 22/21 A2996 RMK A01 T02240206  RH  089%=      5-min Rain = 0
KAM3 261912Z 15014KT 22/21 A2996 RMK A01 T02230206  RH  090%=      5-min Rain = 0
KAM3 261913Z 15016KT 22/21 A2996 RMK A01 T02230206  RH  090%=      5-min Rain = 0
KAM3 261914Z 15014KT 22/21 A2996 RMK A01 T02220205  RH  090%=      5-min Rain = 0
KAM3 261915Z 15016KT 22/21 A2996 RMK A01 T02210206  RH  091%=      5-min Rain = 0
KAM3 261916Z 15016G21KT 22/21 A2996 RMK A01 T02210206  RH  091%=      5-min Rain = 0
KAM3 261917Z 16016G21KT 22/21 A2997 RMK A01 T02200206  RH  092%=      5-min Rain = 0
KAM3 261918Z 16014G20KT 22/21 A2997 RMK A01 T02190206  RH  092%=      5-min Rain = 0
KAM3 261919Z 17016G22KT 22/21 A2997 RMK A01 T02190205  RH  091%=      5-min Rain = 0
KAM3 261920Z 16014KT 22/21 A2997 RMK A01 T02190205  RH  092%=      5-min Rain = 0
KAM3 261921Z 17012KT 22/21 A2997 RMK A01 T02180207  RH  093%=      5-min Rain = 0
KAM3 261922Z 17013KT 22/21 A2996 RMK A01 T02180207  RH  093%=      5-min Rain = 0
KAM3 261923Z 17013KT 22/21 A2997 RMK A01 T02180207  RH  093%=      5-min Rain = 0
KAM3 261924Z 16011G16KT 22/21 A2996 RMK A01 T02180206  RH  093%=      5-min Rain = 0
KAM3 261925Z 15011KT 22/21 A2996 RMK A01 T02180211  RH  096%=      5-min Rain = 0.04
KAM3 261926Z 16012KT 22/21 A2996 RMK A01 T02160214  RH  099%=      5-min Rain = 0.02
KAM3 261927Z 17012KT 21/21 A2997 RMK A01 T02140214  RH  100%=      5-min Rain = 0.01
KAM3 261928Z 17013KT 21/21 A2998 RMK A01 T02120212  RH  100%=      5-min Rain = 0
KAM3 261929Z 17012KT 21/21 A2998 RMK A01 T02110211  RH  100%=      5-min Rain = 0
KAM3 261930Z 17014G20KT 21/21 A2998 RMK A01 T02100210  RH  100%=      5-min Rain = 0.02
KAM3 261931Z 18016KT 21/21 A2999 RMK A01 T02090209  RH  100%=      5-min Rain = 0.01
KAM3 261932Z 18014KT 21/21 A2999 RMK A01 T02080209  RH  100%=      5-min Rain = 0
KAM3 261933Z 18015KT 21/21 A2998 RMK A01 T02080208  RH  100%=      5-min Rain = 0
KAM3 261934Z 18015KT 21/21 A2998 RMK A01 T02080208  RH  100%=      5-min Rain = 0
KAM3 261935Z 18013KT 21/21 A2998 RMK A01 T02080208  RH  100%=      5-min Rain = 0
KAM3 261936Z 18012KT 21/21 A2998 RMK A01 T02070208  RH  100%=      5-min Rain = 0
KAM3 261937Z 18014G19KT 21/21 A2998 RMK A01 T02070207  RH  100%=      5-min Rain = 0
KAM3 261938Z 18013KT 21/21 A2998 RMK A01 T02060206  RH  100%=      5-min Rain = 0
KAM3 261939Z 18014KT 21/21 A2998 RMK A01 T02060207  RH  100%=      5-min Rain = 0
KAM3 261940Z 18013KT 21/21 A2998 RMK A01 T02060207  RH  100%=      5-min Rain = 0.01
KAM3 261941Z 18013KT 21/21 A2998 RMK A01 T02070207  RH  100%=      5-min Rain = 0.01
KAM3 261942Z 18014KT 21/21 A2998 RMK A01 T02060206  RH  100%=      5-min Rain = 0
KAM3 261943Z 18013KT 21/21 A2998 RMK A01 T02050205  RH  100%=      5-min Rain = 0
KAM3 261944Z 18012KT 21/21 A2998 RMK A01 T02050205  RH  100%=      5-min Rain = 0
KAM3 261945Z 18012KT 20/21 A2999 RMK A01 T02040205  RH  100%=      5-min Rain = 0
KAM3 261946Z 18013KT 20/20 A2999 RMK A01 T02040204  RH  100%=      5-min Rain = 0
KAM3 261947Z 18012KT 20/20 A2999 RMK A01 T02040204  RH  100%=      5-min Rain = 0
KAM3 261948Z 18012KT 20/20 A2999 RMK A01 T02040204  RH  100%=      5-min Rain = 0
KAM3 261949Z 18012KT 20/20 A2998 RMK A01 T02030203  RH  100%=      5-min Rain = 0
KAM3 261950Z 19011G16KT 20/20 A2998 RMK A01 T02030203  RH  100%=      5-min Rain = 0.01
KAM3 261951Z 19016G25KT 20/20 A2997 RMK A01 T02030203  RH  100%=      5-min Rain = 0
KAM3 261952Z 17018KT 20/20 A2997 RMK A01 T02020202  RH  100%=      5-min Rain = 0
KAM3 261953Z 16018KT 20/20 A2996 RMK A01 T02000199  RH  099%=      5-min Rain = 0
KAM3 261954Z 17024G29KT 20/19 A2995 RMK A01 T01980189  RH  095%=      5-min Rain = 0
KAM3 261955Z 17018KT 20/19 A2995 RMK A01 T01980189  RH  095%=      5-min Rain = 0
KAM3 261956Z 17013KT 20/19 A2995 RMK A01 T01970194  RH  098%=      5-min Rain = 0
KAM3 261957Z 17012KT 20/20 A2995 RMK A01 T01950196  RH  100%=      5-min Rain = 0
KAM3 261958Z 17016KT 20/20 A2994 RMK A01 T01950195  RH  100%=      5-min Rain = 0
KAM3 261959Z 16019KT 20/20 A2994 RMK A01 T01960196  RH  100%=      5-min Rain = 0
KAM3 262000Z 15015KT 20/20 A2993 RMK A01 T01980198  RH  100%=      5-min Rain = 0
KAM3 262001Z 14015G21KT 20/20 A2993 RMK A01 T01990199  RH  100%=      5-min Rain = 0
KAM3 262002Z 14015KT 20/20 A2993 RMK A01 T01990199  RH  100%=      5-min Rain = 0
KAM3 262003Z 14016KT 20/20 A2993 RMK A01 T01990199  RH  100%=      5-min Rain = 0
KAM3 262004Z 14016KT 20/20 A2992 RMK A01 T01990199  RH  100%=      5-min Rain = 0
KAM3 262005Z 14012G17KT 20/20 A2992 RMK A01 T01990199  RH  100%=      5-min Rain = 0
KAM3 262006Z 15016KT 20/20 A2992 RMK A01 T01990200  RH  100%=      5-min Rain = 0
KAM3 262007Z 15016KT 20/20 A2992 RMK A01 T02000200  RH  100%=      5-min Rain = 0
KAM3 262008Z 14013KT 20/20 A2991 RMK A01 T02010201  RH  100%=      5-min Rain = 0
KAM3 262009Z 14012KT 20/20 A2991 RMK A01 T02020202  RH  100%=      5-min Rain = 0
KAM3 262010Z 14012KT 20/20 A2991 RMK A01 T02020202  RH  100%=      5-min Rain = 0
KAM3 262011Z 15015KT 20/20 A2992 RMK A01 T02020203  RH  100%=      5-min Rain = 0
KAM3 262012Z 15015KT 20/20 A2992 RMK A01 T02030203  RH  100%=      5-min Rain = 0
KAM3 262013Z 15015KT 20/20 A2993 RMK A01 T02020202  RH  100%=      5-min Rain = 0
KAM3 262014Z 15014G20KT 20/20 A2993 RMK A01 T02010201  RH  100%=      5-min Rain = 0
KAM3 262015Z 15014KT 20/20 A2993 RMK A01 T02010201  RH  100%=      5-min Rain = 0
KAM3 262016Z 15015KT 20/20 A2993 RMK A01 T02000200  RH  100%=      5-min Rain = 0
KAM3 262017Z 15015KT 20/20 A2993 RMK A01 T01990199  RH  100%=      5-min Rain = 0
KAM3 262018Z 15014KT 20/20 A2993 RMK A01 T01990199  RH  100%=      5-min Rain = 0
KAM3 262019Z 15016KT 20/20 A2993 RMK A01 T01990199  RH  100%=      5-min Rain = 0
KAM3 262020Z 14016KT 20/20 A2993 RMK A01 T01990199  RH  100%=      5-min Rain = 0
KAM3 262021Z 15016G21KT 20/20 A2993 RMK A01 T01990199  RH  100%=      5-min Rain = 0
KAM3 262022Z 15015KT 20/20 A2993 RMK A01 T01990199  RH  100%=      5-min Rain = 0
KAM3 262023Z 15016KT 20/20 A2993 RMK A01 T01990199  RH  100%=      5-min Rain = 0
KAM3 262024Z 15015KT 20/20 A2993 RMK A01 T02000200  RH  100%=      5-min Rain = 0
KAM3 262025Z 15015KT 20/20 A2993 RMK A01 T02000200  RH  100%=      5-min Rain = 0
KAM3 262026Z 15013KT 20/20 A2993 RMK A01 T02010201  RH  100%=      5-min Rain = 0
KAM3 262027Z 14013KT 20/20 A2993 RMK A01 T02010202  RH  100%=      5-min Rain = 0
KAM3 262028Z 14012KT 20/20 A2992 RMK A01 T02010201  RH  100%=      5-min Rain = 0
KAM3 262029Z 14011G17KT 20/20 A2992 RMK A01 T02020202  RH  100%=      5-min Rain = 0
KAM3 262030Z 14013KT 20/20 A2991 RMK A01 T02020202  RH  100%=      5-min Rain = 0
KAM3 262031Z 14013KT 20/20 A2992 RMK A01 T02020202  RH  100%=      5-min Rain = 0
KAM3 262032Z 14012KT 20/20 A2992 RMK A01 T02020203  RH  100%=      5-min Rain = 0
KAM3 262033Z 13013KT 20/20 A2991 RMK A01 T02030203  RH  100%=      5-min Rain = 0
KAM3 262034Z 13012KT 20/20 A2991 RMK A01 T02030203  RH  100%=      5-min Rain = 0
KAM3 262035Z 12011KT 20/20 A299 RMK A01 T02030203  RH  100%=      5-min Rain = 0
KAM3 262036Z 13013KT 20/20 A299 RMK A01 T02030203  RH  100%=      5-min Rain = 0
KAM3 262037Z 13013KT 20/20 A2991 RMK A01 T02040204  RH  100%=      5-min Rain = 0
KAM3 262038Z 13013KT 20/20 A2991 RMK A01 T02040204  RH  100%=      5-min Rain = 0
KAM3 262039Z 13015KT 20/21 A2991 RMK A01 T02040205  RH  100%=      5-min Rain = 0
KAM3 262040Z 13015G21KT 20/21 A2991 RMK A01 T02040205  RH  100%=      5-min Rain = 0
KAM3 262041Z 14016KT 20/21 A2991 RMK A01 T02040205  RH  100%=      5-min Rain = 0
KAM3 262042Z 14017G25KT 21/21 A2992 RMK A01 T02050205  RH  100%=      5-min Rain = 0
KAM3 262043Z 14018KT 21/21 A2993 RMK A01 T02050206  RH  100%=      5-min Rain = 0
KAM3 262044Z 14015KT 21/21 A2992 RMK A01 T02060206  RH  100%=      5-min Rain = 0
KAM3 262045Z 14016G21KT 21/21 A2992 RMK A01 T02060206  RH  100%=      5-min Rain = 0
KAM3 262046Z 13018G25KT 21/21 A2992 RMK A01 T02060206  RH  100%=      5-min Rain = 0
KAM3 262047Z 14020KT 21/21 A2992 RMK A01 T02060207  RH  100%=      5-min Rain = 0
KAM3 262048Z 13017KT 21/21 A2991 RMK A01 T02060206  RH  100%=      5-min Rain = 0
KAM3 262049Z 14015KT 21/21 A2991 RMK A01 T02060206  RH  100%=      5-min Rain = 0
KAM3 262050Z 14019KT 21/21 A2991 RMK A01 T02060206  RH  100%=      5-min Rain = 0
KAM3 262051Z 13018G24KT 21/21 A2991 RMK A01 T02060206  RH  100%=      5-min Rain = 0
KAM3 262052Z 14019KT 21/21 A2991 RMK A01 T02070207  RH  100%=      5-min Rain = 0
KAM3 262053Z 14016G21KT 21/21 A2992 RMK A01 T02070207  RH  100%=      5-min Rain = 0
KAM3 262054Z 15019KT 21/21 A2993 RMK A01 T02080208  RH  100%=      5-min Rain = 0
KAM3 262055Z 14016G22KT 21/21 A2993 RMK A01 T02080208  RH  100%=      5-min Rain = 0
KAM3 262056Z 15014KT 21/21 A2994 RMK A01 T02080208  RH  100%=      5-min Rain = 0
KAM3 262057Z 15015G21KT 21/21 A2994 RMK A01 T02080208  RH  100%=      5-min Rain = 0
KAM3 262058Z 15014KT 21/21 A2994 RMK A01 T02080208  RH  100%=      5-min Rain = 0
KAM3 262059Z 15013KT 21/21 A2994 RMK A01 T02080208  RH  100%=      5-min Rain = 0
KAM3 262100Z 15015G20KT 21/21 A2993 RMK A01 T02080208  RH  100%=      5-min Rain = 0
KAM3 262101Z 15016G21KT 21/21 A2993 RMK A01 T02080208  RH  100%=      5-min Rain = 0
KAM3 262102Z 15014KT 21/21 A2993 RMK A01 T02090209  RH  100%=      5-min Rain = 0
KAM3 262103Z 15015KT 21/21 A2993 RMK A01 T02100210  RH  100%=      5-min Rain = 0
KAM3 262104Z 14017G24KT 21/21 A2993 RMK A01 T02110211  RH  100%=      5-min Rain = 0
KAM3 262105Z 14019G26KT 21/21 A2992 RMK A01 T02120212  RH  100%=      5-min Rain = 0
KAM3 262106Z 15018KT 21/21 A2992 RMK A01 T02130213  RH  100%=      5-min Rain = 0
KAM3 262107Z 16017G24KT 21/21 A2992 RMK A01 T02130214  RH  100%=      5-min Rain = 0
KAM3 262108Z 15016KT 21/21 A2993 RMK A01 T02140214  RH  100%=      5-min Rain = 0
KAM3 262109Z 15017G23KT 22/22 A2992 RMK A01 T02160216  RH  100%=      5-min Rain = 0
KAM3 262110Z 15016KT 22/22 A2992 RMK A01 T02160216  RH  100%=      5-min Rain = 0
KAM3 262111Z 15017KT 22/22 A2991 RMK A01 T02170217  RH  100%=      5-min Rain = 0
KAM3 262112Z 14016G22KT 22/22 A2991 RMK A01 T02170217  RH  100%=      5-min Rain = 0
KAM3 262113Z 15018KT 22/22 A2991 RMK A01 T02170217  RH  100%=      5-min Rain = 0
KAM3 262114Z 15013KT 22/22 A2991 RMK A01 T02170217  RH  100%=      5-min Rain = 0
KAM3 262115Z 14016G21KT 22/22 A2991 RMK A01 T02170218  RH  100%=      5-min Rain = 0
KAM3 262116Z 14013G18KT 22/22 A2991 RMK A01 T02180218  RH  100%=      5-min Rain = 0
KAM3 262117Z 14014G20KT 22/22 A299 RMK A01 T02180218  RH  100%=      5-min Rain = 0
KAM3 262118Z 14018KT 22/22 A299 RMK A01 T02180218  RH  100%=      5-min Rain = 0
KAM3 262119Z 14017G23KT 22/22 A299 RMK A01 T02180218  RH  100%=      5-min Rain = 0
KAM3 262120Z 14018KT 22/22 A299 RMK A01 T02180219  RH  100%=      5-min Rain = 0
KAM3 262121Z 14017G22KT 22/22 A299 RMK A01 T02180218  RH  100%=      5-min Rain = 0
KAM3 262122Z 14014KT 22/22 A299 RMK A01 T02180218  RH  100%=      5-min Rain = 0
KAM3 262123Z 15015KT 22/22 A299 RMK A01 T02180218  RH  100%=      5-min Rain = 0
KAM3 262124Z 14012G18KT 22/22 A299 RMK A01 T02180218  RH  100%=      5-min Rain = 0
KAM3 262125Z 14013G21KT 22/22 A299 RMK A01 T02170218  RH  100%=      5-min Rain = 0
KAM3 262126Z 15017G22KT 22/22 A2991 RMK A01 T02180218  RH  100%=      5-min Rain = 0
KAM3 262127Z 15016KT 22/22 A2991 RMK A01 T02180218  RH  100%=      5-min Rain = 0
KAM3 262128Z 15017KT 22/22 A2991 RMK A01 T02180218  RH  100%=      5-min Rain = 0
KAM3 262129Z 15021G27KT 22/22 A2991 RMK A01 T02170218  RH  100%=      5-min Rain = 0
KAM3 262130Z 14019G24KT 22/22 A2991 RMK A01 T02180218  RH  100%=      5-min Rain = 0
KAM3 262131Z 15019KT 22/22 A299 RMK A01 T02170218  RH  100%=      5-min Rain = 0
KAM3 262132Z 15016KT 22/22 A2991 RMK A01 T02170218  RH  100%=      5-min Rain = 0
KAM3 262133Z 15018G24KT 22/22 A2991 RMK A01 T02170218  RH  100%=      5-min Rain = 0
KAM3 262134Z 15023G29KT 22/21 A299 RMK A01 T02180214  RH  097%=      5-min Rain = 0
KAM3 262135Z 14022G27KT 22/21 A299 RMK A01 T02190213  RH  097%=      5-min Rain = 0
KAM3 262136Z 13023KT 22/21 A299 RMK A01 T02190212  RH  096%=      5-min Rain = 0
KAM3 262137Z 14019KT 22/22 A2989 RMK A01 T02180216  RH  099%=      5-min Rain = 0
KAM3 262138Z 14017KT 22/22 A2989 RMK A01 T02170217  RH  100%=      5-min Rain = 0
KAM3 262139Z 14020G25KT 22/22 A2989 RMK A01 T02160217  RH  100%=      5-min Rain = 0
KAM3 262140Z 14019KT 22/22 A2989 RMK A01 T02160217  RH  100%=      5-min Rain = 0
KAM3 262141Z 14016G22KT 22/22 A2989 RMK A01 T02160217  RH  100%=      5-min Rain = 0
KAM3 262142Z 13018KT 22/22 A2989 RMK A01 T02160216  RH  100%=      5-min Rain = 0
KAM3 262143Z 14019G24KT 22/22 A2989 RMK A01 T02160216  RH  100%=      5-min Rain = 0
KAM3 262144Z 14018G23KT 22/22 A2988 RMK A01 T02160216  RH  100%=      5-min Rain = 0
KAM3 262145Z 13019KT 22/22 A2988 RMK A01 T02150215  RH  100%=      5-min Rain = 0
KAM3 262146Z 13019G25KT 22/22 A2988 RMK A01 T02150215  RH  100%=      5-min Rain = 0
KAM3 262147Z 13017G22KT 22/22 A2988 RMK A01 T02150215  RH  100%=      5-min Rain = 0
KAM3 262148Z 14016KT 22/22 A2987 RMK A01 T02150215  RH  100%=      5-min Rain = 0
KAM3 262149Z 13020KT 22/22 A2987 RMK A01 T02150215  RH  100%=      5-min Rain = 0
KAM3 262150Z 13018KT 22/22 A2987 RMK A01 T02150215  RH  100%=      5-min Rain = 0
KAM3 262151Z 14016G22KT 22/22 A2987 RMK A01 T02150215  RH  100%=      5-min Rain = 0
KAM3 262152Z 13020KT 22/22 A2987 RMK A01 T02160216  RH  100%=      5-min Rain = 0
KAM3 262153Z 14019KT 22/22 A2987 RMK A01 T02170217  RH  100%=      5-min Rain = 0
KAM3 262154Z 14020G25KT 22/22 A2988 RMK A01 T02180218  RH  100%=      5-min Rain = 0
KAM3 262155Z 15019KT 22/22 A2988 RMK A01 T02190219  RH  100%=      5-min Rain = 0
KAM3 262156Z 14018G24KT 22/22 A2987 RMK A01 T02200219  RH  099%=      5-min Rain = 0
KAM3 262157Z 14021KT 22/22 A2987 RMK A01 T02200219  RH  099%=      5-min Rain = 0
KAM3 262158Z 14022G27KT 22/22 A2987 RMK A01 T02210218  RH  098%=      5-min Rain = 0
KAM3 262159Z 13022KT 22/22 A2986 RMK A01 T02200217  RH  098%=      5-min Rain = 0
KAM3 262200Z 14020KT 22/22 A2986 RMK A01 T02200218  RH  099%=      5-min Rain = 0
KAM3 262201Z 14018KT 22/22 A2986 RMK A01 T02200219  RH  100%=      5-min Rain = 0
KAM3 262202Z 14017G23KT 22/22 A2986 RMK A01 T02200220  RH  100%=      5-min Rain = 0
KAM3 262203Z 14020G25KT 22/22 A2986 RMK A01 T02210218  RH  098%=      5-min Rain = 0
KAM3 262204Z 14020KT 22/22 A2986 RMK A01 T02220218  RH  097%=      5-min Rain = 0
KAM3 262205Z 13021G26KT 22/22 A2985 RMK A01 T02230216  RH  096%=      5-min Rain = 0
KAM3 262206Z 14018KT 22/22 A2985 RMK A01 T02230216  RH  096%=      5-min Rain = 0
KAM3 262207Z 13020KT 22/22 A2985 RMK A01 T02230216  RH  096%=      5-min Rain = 0
KAM3 262208Z 13017KT 22/22 A2985 RMK A01 T02230217  RH  096%=      5-min Rain = 0
KAM3 262209Z 13019KT 22/21 A2984 RMK A01 T02240214  RH  094%=      5-min Rain = 0
KAM3 262210Z 14019KT 22/22 A2984 RMK A01 T02240215  RH  094%=      5-min Rain = 0
KAM3 262211Z 14016KT 22/22 A2984 RMK A01 T02230216  RH  096%=      5-min Rain = 0
KAM3 262212Z 13018KT 22/22 A2984 RMK A01 T02230216  RH  096%=      5-min Rain = 0
KAM3 262213Z 13016KT 22/22 A2984 RMK A01 T02240216  RH  095%=      5-min Rain = 0
KAM3 262214Z 14016KT 22/22 A2984 RMK A01 T02240217  RH  096%=      5-min Rain = 0
KAM3 262215Z 14019KT 23/22 A2986 RMK A01 T02250218  RH  096%=      5-min Rain = 0
KAM3 262216Z 14020KT 23/22 A2986 RMK A01 T02260218  RH  095%=      5-min Rain = 0
KAM3 262217Z 14021G27KT 23/22 A2986 RMK A01 T02260218  RH  095%=      5-min Rain = 0
KAM3 262218Z 14024G29KT 23/22 A2986 RMK A01 T02260216  RH  094%=      5-min Rain = 0
KAM3 262219Z 13022KT 22/22 A2986 RMK A01 T02240216  RH  095%=      5-min Rain = 0
KAM3 262220Z 14018G24KT 22/22 A2985 RMK A01 T02220219  RH  098%=      5-min Rain = 0
KAM3 262221Z 14017KT 22/22 A2985 RMK A01 T02210221  RH  100%=      5-min Rain = 0
KAM3 262222Z 13016G22KT 22/22 A2986 RMK A01 T02200220  RH  100%=      5-min Rain = 0
KAM3 262223Z 15017G23KT 22/22 A2986 RMK A01 T02200220  RH  100%=      5-min Rain = 0
KAM3 262224Z 15020G26KT 22/22 A2987 RMK A01 T02190215  RH  098%=      5-min Rain = 0
KAM3 262225Z 15019KT 22/22 A2987 RMK A01 T02190219  RH  100%=      5-min Rain = 0
KAM3 262226Z 15020G25KT 22/22 A2986 RMK A01 T02180217  RH  100%=      5-min Rain = 0
KAM3 262227Z 14014KT 22/22 A2986 RMK A01 T02170217  RH  100%=      5-min Rain = 0
KAM3 262228Z 14015G23KT 22/22 A2986 RMK A01 T02170217  RH  100%=      5-min Rain = 0
KAM3 262229Z 14019G26KT 22/22 A2985 RMK A01 T02170217  RH  100%=      5-min Rain = 0
KAM3 262230Z 15019G24KT 22/22 A2985 RMK A01 T02170216  RH  100%=      5-min Rain = 0
KAM3 262231Z 15018G23KT 22/22 A2986 RMK A01 T02170217  RH  100%=      5-min Rain = 0
KAM3 262232Z 15017G23KT 22/22 A2986 RMK A01 T02160216  RH  100%=      5-min Rain = 0
KAM3 262233Z 15020G27KT 22/22 A2986 RMK A01 T02160216  RH  100%=      5-min Rain = 0
KAM3 262234Z 15021G29KT 22/22 A2986 RMK A01 T02160216  RH  100%=      5-min Rain = 0
KAM3 262235Z 15022G27KT 22/22 A2985 RMK A01 T02160216  RH  100%=      5-min Rain = 0
KAM3 262236Z 15023G28KT 22/22 A2985 RMK A01 T02160215  RH  099%=      5-min Rain = 0
KAM3 262237Z 15020G26KT 22/21 A2985 RMK A01 T02150213  RH  099%=      5-min Rain = 0
KAM3 262238Z 14018G24KT 22/22 A2984 RMK A01 T02150215  RH  100%=      5-min Rain = 0
KAM3 262239Z 14018KT 22/22 A2984 RMK A01 T02150215  RH  100%=      5-min Rain = 0
KAM3 262240Z 14016KT 22/22 A2984 RMK A01 T02150215  RH  100%=      5-min Rain = 0
KAM3 262241Z 15017G22KT 22/22 A2984 RMK A01 T02160215  RH  100%=      5-min Rain = 0
KAM3 262242Z 14014G19KT 22/21 A2983 RMK A01 T02170214  RH  099%=      5-min Rain = 0
KAM3 262243Z 14013KT 22/21 A2984 RMK A01 T02170214  RH  098%=      5-min Rain = 0
KAM3 262244Z 13015KT 22/22 A2983 RMK A01 T02180216  RH  099%=      5-min Rain = 0
KAM3 262245Z 13013G18KT 22/22 A2983 RMK A01 T02200218  RH  099%=      5-min Rain = 0
KAM3 262246Z 15016G23KT 22/22 A2984 RMK A01 T02220217  RH  097%=      5-min Rain = 0
KAM3 262247Z 14015KT 22/22 A2985 RMK A01 T02230216  RH  096%=      5-min Rain = 0
KAM3 262248Z 14016G22KT 22/22 A2984 RMK A01 T02230215  RH  095%=      5-min Rain = 0
KAM3 262249Z 14014KT 22/22 A2985 RMK A01 T02230216  RH  096%=      5-min Rain = 0
KAM3 262250Z 14018G27KT 22/22 A2985 RMK A01 T02230215  RH  096%=      5-min Rain = 0
KAM3 262251Z 14022G27KT 22/21 A2985 RMK A01 T02220213  RH  095%=      5-min Rain = 0
KAM3 262252Z 15017G23KT 22/21 A2985 RMK A01 T02210214  RH  096%=      5-min Rain = 0
KAM3 262253Z 14020KT 22/21 A2985 RMK A01 T02200214  RH  097%=      5-min Rain = 0
KAM3 262254Z 15019KT 22/22 A2984 RMK A01 T02190215  RH  097%=      5-min Rain = 0
KAM3 262255Z 15019KT 22/22 A2984 RMK A01 T02190215  RH  097%=      5-min Rain = 0
KAM3 262256Z 14017G22KT 22/21 A2985 RMK A01 T02190214  RH  097%=      5-min Rain = 0
KAM3 262257Z 15020KT 22/22 A2985 RMK A01 T02190215  RH  098%=      5-min Rain = 0
KAM3 262258Z 15019G25KT 22/21 A2985 RMK A01 T02190213  RH  097%=      5-min Rain = 0
KAM3 262259Z 15021KT 22/21 A2985 RMK A01 T02200214  RH  096%=      5-min Rain = 0
KAM3 262300Z 15021G27KT 22/21 A2985 RMK A01 T02210212  RH  094%=      5-min Rain = 0
KAM3 262301Z 15025KT 22/21 A2985 RMK A01 T02220211  RH  094%=      5-min Rain = 0
KAM3 262302Z 15021KT 22/21 A2985 RMK A01 T02210210  RH  094%=      5-min Rain = 0
KAM3 262303Z 15017G22KT 22/21 A2985 RMK A01 T02190212  RH  096%=      5-min Rain = 0
KAM3 262304Z 15014KT 22/22 A2985 RMK A01 T02180216  RH  098%=      5-min Rain = 0
KAM3 262305Z 15018G23KT 22/22 A2985 RMK A01 T02180215  RH  098%=      5-min Rain = 0
KAM3 262306Z 15019G24KT 22/21 A2986 RMK A01 T02180214  RH  098%=      5-min Rain = 0
KAM3 262307Z 15020G25KT 22/21 A2985 RMK A01 T02180211  RH  096%=      5-min Rain = 0
KAM3 262308Z 15019G24KT 22/21 A2985 RMK A01 T02180211  RH  096%=      5-min Rain = 0
KAM3 262309Z 15017G23KT 22/21 A2986 RMK A01 T02180214  RH  097%=      5-min Rain = 0
KAM3 262310Z 16019G26KT 22/21 A2986 RMK A01 T02180213  RH  097%=      5-min Rain = 0
KAM3 262311Z 16023KT 22/21 A2986 RMK A01 T02190209  RH  094%=      5-min Rain = 0
KAM3 262312Z 16023KT 22/21 A2985 RMK A01 T02190209  RH  094%=      5-min Rain = 0
KAM3 262313Z 15022G27KT 22/21 A2985 RMK A01 T02190208  RH  094%=      5-min Rain = 0
KAM3 262314Z 16023G30KT 22/21 A2985 RMK A01 T02180208  RH  094%=      5-min Rain = 0
KAM3 262315Z 16024KT 22/21 A2985 RMK A01 T02180206  RH  093%=      5-min Rain = 0
KAM3 262316Z 16018KT 22/21 A2985 RMK A01 T02180207  RH  094%=      5-min Rain = 0
KAM3 262317Z 15019KT 22/21 A2985 RMK A01 T02180208  RH  094%=      5-min Rain = 0
KAM3 262318Z 16019G24KT 22/21 A2984 RMK A01 T02180209  RH  095%=      5-min Rain = 0
KAM3 262319Z 16019G26KT 22/21 A2984 RMK A01 T02180208  RH  094%=      5-min Rain = 0
KAM3 262320Z 16018G25KT 22/21 A2985 RMK A01 T02180210  RH  095%=      5-min Rain = 0
KAM3 262321Z 15019KT 22/21 A2985 RMK A01 T02190210  RH  095%=      5-min Rain = 0
KAM3 262322Z 15018G23KT 22/21 A2985 RMK A01 T02200210  RH  094%=      5-min Rain = 0
KAM3 262323Z 16020KT 22/21 A2985 RMK A01 T02200210  RH  094%=      5-min Rain = 0
KAM3 262324Z 16018KT 22/21 A2985 RMK A01 T02200210  RH  094%=      5-min Rain = 0
KAM3 262325Z 16021G29KT 22/21 A2985 RMK A01 T02210211  RH  094%=      5-min Rain = 0
KAM3 262326Z 16024KT 22/21 A2984 RMK A01 T02200207  RH  092%=      5-min Rain = 0
KAM3 262327Z 16019KT 22/21 A2985 RMK A01 T02200209  RH  093%=      5-min Rain = 0
KAM3 262328Z 15020G26KT 22/21 A2985 RMK A01 T02200211  RH  095%=      5-min Rain = 0
KAM3 262329Z 16025G31KT 22/21 A2984 RMK A01 T02190210  RH  094%=      5-min Rain = 0
KAM3 262330Z 16025KT 22/21 A2984 RMK A01 T02180207  RH  093%=      5-min Rain = 0
KAM3 262331Z 15021G27KT 22/21 A2984 RMK A01 T02170208  RH  094%=      5-min Rain = 0
KAM3 262332Z 16017KT 22/21 A2984 RMK A01 T02170210  RH  096%=      5-min Rain = 0
KAM3 262333Z 15021G26KT 22/21 A2984 RMK A01 T02170211  RH  096%=      5-min Rain = 0
KAM3 262334Z 15018G23KT 22/21 A2984 RMK A01 T02170210  RH  096%=      5-min Rain = 0
KAM3 262335Z 16021KT 22/21 A2983 RMK A01 T02170210  RH  096%=      5-min Rain = 0
KAM3 262336Z 15020G25KT 22/21 A2983 RMK A01 T02170210  RH  096%=      5-min Rain = 0
KAM3 262337Z 15018G24KT 22/21 A2983 RMK A01 T02170211  RH  097%=      5-min Rain = 0
KAM3 262338Z 15023G29KT 22/21 A2983 RMK A01 T02170209  RH  096%=      5-min Rain = 0
KAM3 262339Z 15021G26KT 22/21 A2983 RMK A01 T02170210  RH  096%=      5-min Rain = 0
KAM3 262340Z 15019G26KT 22/21 A2983 RMK A01 T02170209  RH  095%=      5-min Rain = 0
KAM3 262341Z 14018G23KT 22/21 A2983 RMK A01 T02170210  RH  096%=      5-min Rain = 0
KAM3 262342Z 14019KT 22/21 A2982 RMK A01 T02170210  RH  096%=      5-min Rain = 0
KAM3 262343Z 14018KT 22/21 A2982 RMK A01 T02180210  RH  095%=      5-min Rain = 0
KAM3 262344Z 14019G24KT 22/21 A2982 RMK A01 T02200210  RH  094%=      5-min Rain = 0
KAM3 262345Z 14019KT 22/21 A2982 RMK A01 T02210209  RH  093%=      5-min Rain = 0
KAM3 262346Z 14020G28KT 22/21 A2981 RMK A01 T02220208  RH  092%=      5-min Rain = 0
KAM3 262347Z 14021G27KT 22/21 A2981 RMK A01 T02210207  RH  092%=      5-min Rain = 0
KAM3 262348Z 15022G28KT 22/20 A2981 RMK A01 T02200204  RH  091%=      5-min Rain = 0
KAM3 262349Z 15018KT 22/21 A2981 RMK A01 T02190207  RH  092%=      5-min Rain = 0
KAM3 262350Z 14019KT 22/21 A2982 RMK A01 T02200208  RH  093%=      5-min Rain = 0
KAM3 262351Z 15015G21KT 22/21 A2982 RMK A01 T02220209  RH  093%=      5-min Rain = 0
KAM3 262352Z 15017G22KT 22/21 A2982 RMK A01 T02230210  RH  092%=      5-min Rain = 0
KAM3 262353Z 14018KT 22/21 A2982 RMK A01 T02240206  RH  089%=      5-min Rain = 0
KAM3 262354Z 15021G27KT 22/21 A2982 RMK A01 T02230206  RH  090%=      5-min Rain = 0
KAM3 262355Z 15020G27KT 22/21 A2982 RMK A01 T02210206  RH  091%=      5-min Rain = 0
KAM3 262356Z 16017KT 22/21 A2982 RMK A01 T02200208  RH  093%=      5-min Rain = 0
KAM3 262357Z 15015G20KT 22/21 A2982 RMK A01 T02190208  RH  093%=      5-min Rain = 0
KAM3 262358Z 16021G26KT 22/21 A2982 RMK A01 T02190209  RH  094%=      5-min Rain = 0
KAM3 262359Z 16022G27KT 22/21 A2982 RMK A01 T02180206  RH  093%=      5-min Rain = 0
KAM3 270000Z 16020G28KT 22/21 A2983 RMK A01 T02170209  RH  095%=      5-min Rain = 0
KAM3 270001Z 15017G25KT 22/21 A2983 RMK A01 T02170209  RH  095%=      5-min Rain = 0
KAM3 270002Z 15020G27KT 22/21 A2983 RMK A01 T02160209  RH  096%=      5-min Rain = 0
KAM3 270003Z 16021KT 22/21 A2983 RMK A01 T02160208  RH  095%=      5-min Rain = 0
KAM3 270004Z 15017G24KT 22/21 A2983 RMK A01 T02160210  RH  096%=      5-min Rain = 0
KAM3 270005Z 15018G24KT 22/21 A2983 RMK A01 T02160209  RH  096%=      5-min Rain = 0
KAM3 270006Z 15021KT 22/21 A2983 RMK A01 T02150209  RH  096%=      5-min Rain = 0
KAM3 270007Z 15024G29KT 22/21 A2983 RMK A01 T02150208  RH  095%=      5-min Rain = 0
KAM3 270008Z 16019G27KT 22/21 A2983 RMK A01 T02150207  RH  095%=      5-min Rain = 0
KAM3 270009Z 16017G25KT 22/21 A2983 RMK A01 T02150209  RH  096%=      5-min Rain = 0
KAM3 270010Z 15020G25KT 22/21 A2983 RMK A01 T02150208  RH  096%=      5-min Rain = 0
KAM3 270011Z 15019G25KT 22/21 A2983 RMK A01 T02150208  RH  096%=      5-min Rain = 0
KAM3 270012Z 15018G23KT 22/21 A2982 RMK A01 T02150207  RH  095%=      5-min Rain = 0
KAM3 270013Z 15024G29KT 22/21 A2982 RMK A01 T02150206  RH  094%=      5-min Rain = 0
KAM3 270014Z 16020G26KT 22/21 A2982 RMK A01 T02150206  RH  094%=      5-min Rain = 0
KAM3 270015Z 15017KT 22/21 A2982 RMK A01 T02150207  RH  095%=      5-min Rain = 0
KAM3 270016Z 14019G28KT 22/21 A2981 RMK A01 T02160208  RH  095%=      5-min Rain = 0
KAM3 270017Z 14021G28KT 22/21 A2981 RMK A01 T02170207  RH  094%=      5-min Rain = 0
KAM3 270018Z 14019G24KT 22/21 A298 RMK A01 T02170206  RH  093%=      5-min Rain = 0
KAM3 270019Z 15019G28KT 22/21 A298 RMK A01 T02180207  RH  094%=      5-min Rain = 0
KAM3 270020Z 15023G28KT 22/21 A298 RMK A01 T02190206  RH  093%=      5-min Rain = 0
KAM3 270021Z 15026G32KT 22/21 A2979 RMK A01 T02190205  RH  092%=      5-min Rain = 0
KAM3 270022Z 15021KT 22/21 A2979 RMK A01 T02180205  RH  092%=      5-min Rain = 0
KAM3 270023Z 15018G25KT 22/21 A2979 RMK A01 T02180206  RH  093%=      5-min Rain = 0
KAM3 270024Z 15023G30KT 22/21 A2979 RMK A01 T02170206  RH  093%=      5-min Rain = 0
KAM3 270025Z 14024G33KT 22/20 A2979 RMK A01 T02180204  RH  092%=      5-min Rain = 0
KAM3 270026Z 15022G27KT 22/20 A2979 RMK A01 T02180204  RH  092%=      5-min Rain = 0
KAM3 270027Z 15024KT 22/20 A2978 RMK A01 T02190204  RH  091%=      5-min Rain = 0
KAM3 270028Z 14022KT 22/20 A2978 RMK A01 T02190204  RH  091%=      5-min Rain = 0
KAM3 270029Z 14022G27KT 22/20 A2978 RMK A01 T02190203  RH  091%=      5-min Rain = 0
KAM3 270030Z 14024KT 22/20 A2978 RMK A01 T02200204  RH  091%=      5-min Rain = 0
KAM3 270031Z 14021G26KT 22/20 A2977 RMK A01 T02200203  RH  090%=      5-min Rain = 0
KAM3 270032Z 15019G25KT 22/20 A2977 RMK A01 T02200204  RH  091%=      5-min Rain = 0
KAM3 270033Z 14023G29KT 22/21 A2977 RMK A01 T02190205  RH  091%=      5-min Rain = 0
KAM3 270034Z 14021G26KT 22/20 A2977 RMK A01 T02180204  RH  092%=      5-min Rain = 0
KAM3 270035Z 15021G27KT 22/21 A2977 RMK A01 T02160206  RH  093%=      5-min Rain = 0
KAM3 270036Z 15023G31KT 22/21 A2976 RMK A01 T02150207  RH  095%=      5-min Rain = 0
KAM3 270037Z 14027G32KT 22/21 A2976 RMK A01 T02150206  RH  095%=      5-min Rain = 0
KAM3 270038Z 14022KT 21/21 A2976 RMK A01 T02140207  RH  095%=      5-min Rain = 0
KAM3 270039Z 15021G27KT 21/21 A2976 RMK A01 T02140206  RH  096%=      5-min Rain = 0
KAM3 270040Z 15020G25KT 21/21 A2976 RMK A01 T02130207  RH  096%=      5-min Rain = 0
KAM3 270041Z 15021KT 21/21 A2976 RMK A01 T02130208  RH  097%=      5-min Rain = 0
KAM3 270042Z 14019KT 21/21 A2976 RMK A01 T02130208  RH  097%=      5-min Rain = 0
KAM3 270043Z 15021G26KT 21/21 A2977 RMK A01 T02130208  RH  097%=      5-min Rain = 0
KAM3 270044Z 15023G31KT 21/21 A2977 RMK A01 T02130208  RH  097%=      5-min Rain = 0
KAM3 270045Z 15021G26KT 21/21 A2977 RMK A01 T02120209  RH  098%=      5-min Rain = 0
KAM3 270046Z 15024G31KT 21/21 A2978 RMK A01 T02120209  RH  098%=      5-min Rain = 0
KAM3 270047Z 15025G33KT 21/21 A2978 RMK A01 T02120209  RH  098%=      5-min Rain = 0
KAM3 270048Z 15025G32KT 21/21 A2978 RMK A01 T02130209  RH  098%=      5-min Rain = 0
KAM3 270049Z 16026G31KT 21/21 A2979 RMK A01 T02130209  RH  098%=      5-min Rain = 0
KAM3 270050Z 16027G32KT 21/21 A2979 RMK A01 T02130209  RH  097%=      5-min Rain = 0
KAM3 270051Z 16023KT 21/21 A298 RMK A01 T02130208  RH  097%=      5-min Rain = 0
KAM3 270052Z 16021G28KT 21/21 A298 RMK A01 T02130210  RH  098%=      5-min Rain = 0
KAM3 270053Z 16023KT 21/21 A298 RMK A01 T02130210  RH  098%=      5-min Rain = 0
KAM3 270054Z 16022G27KT 21/21 A298 RMK A01 T02130210  RH  098%=      5-min Rain = 0
KAM3 270055Z 16021KT 21/21 A2981 RMK A01 T02130210  RH  098%=      5-min Rain = 0
KAM3 270056Z 16023G32KT 21/21 A2981 RMK A01 T02130211  RH  098%=      5-min Rain = 0
KAM3 270057Z 16024G30KT 21/21 A2981 RMK A01 T02130210  RH  098%=      5-min Rain = 0
KAM3 270058Z 16022KT 21/21 A2982 RMK A01 T02140210  RH  098%=      5-min Rain = 0
KAM3 270059Z 16024G33KT 21/21 A2982 RMK A01 T02140210  RH  097%=      5-min Rain = 0
KAM3 270100Z 16018G24KT 21/21 A2982 RMK A01 T02140209  RH  097%=      5-min Rain = 0
KAM3 270101Z 16022G33KT 21/21 A2982 RMK A01 T02140210  RH  098%=      5-min Rain = 0
KAM3 270102Z 16023KT 21/21 A2982 RMK A01 T02140210  RH  097%=      5-min Rain = 0
KAM3 270103Z 16023G29KT 21/21 A2982 RMK A01 T02140210  RH  097%=      5-min Rain = 0
KAM3 270104Z 17022KT 21/21 A2982 RMK A01 T02140209  RH  097%=      5-min Rain = 0
KAM3 270105Z 17023KT 22/21 A2982 RMK A01 T02150209  RH  096%=      5-min Rain = 0
KAM3 270106Z 16022KT 22/21 A2982 RMK A01 T02150207  RH  096%=      5-min Rain = 0
KAM3 270107Z 17021G27KT 22/21 A2982 RMK A01 T02150207  RH  095%=      5-min Rain = 0
KAM3 270108Z 16022G27KT 22/21 A2982 RMK A01 T02150206  RH  094%=      5-min Rain = 0
KAM3 270109Z 16022KT 22/21 A2982 RMK A01 T02160205  RH  094%=      5-min Rain = 0
KAM3 270110Z 16022G31KT 22/21 A2982 RMK A01 T02160205  RH  093%=      5-min Rain = 0
KAM3 270111Z 16024G33KT 22/21 A2982 RMK A01 T02170205  RH  093%=      5-min Rain = 0
KAM3 270112Z 16023G32KT 22/20 A2982 RMK A01 T02160204  RH  093%=      5-min Rain = 0
KAM3 270113Z 16025G32KT 22/20 A2982 RMK A01 T02160204  RH  093%=      5-min Rain = 0
KAM3 270114Z 16021G29KT 22/20 A2982 RMK A01 T02170204  RH  092%=      5-min Rain = 0
KAM3 270115Z 16024G31KT 22/20 A2982 RMK A01 T02170204  RH  093%=      5-min Rain = 0
KAM3 270116Z 16026G32KT 22/20 A2982 RMK A01 T02170204  RH  092%=      5-min Rain = 0
KAM3 270117Z 17025G32KT 22/20 A2982 RMK A01 T02170204  RH  092%=      5-min Rain = 0
KAM3 270118Z 16023G30KT 22/20 A2982 RMK A01 T02170204  RH  092%=      5-min Rain = 0
KAM3 270119Z 16020G25KT 22/21 A2982 RMK A01 T02170205  RH  093%=      5-min Rain = 0
KAM3 270120Z 16022G28KT 22/21 A2983 RMK A01 T02160206  RH  094%=      5-min Rain = 0
KAM3 270121Z 16024G30KT 22/21 A2983 RMK A01 T02160205  RH  094%=      5-min Rain = 0
KAM3 270122Z 16020G26KT 22/21 A2983 RMK A01 T02160205  RH  094%=      5-min Rain = 0
KAM3 270123Z 16018KT 22/21 A2983 RMK A01 T02150206  RH  094%=      5-min Rain = 0
KAM3 270124Z 16021G28KT 22/21 A2983 RMK A01 T02150207  RH  095%=      5-min Rain = 0
KAM3 270125Z 17023G29KT 22/21 A2984 RMK A01 T02150207  RH  095%=      5-min Rain = 0
KAM3 270126Z 17020G29KT 22/21 A2984 RMK A01 T02150206  RH  094%=      5-min Rain = 0
KAM3 270127Z 17025G30KT 22/21 A2984 RMK A01 T02160207  RH  094%=      5-min Rain = 0
KAM3 270128Z 17023KT 22/21 A2985 RMK A01 T02160206  RH  094%=      5-min Rain = 0
KAM3 270129Z 17022G28KT 22/21 A2985 RMK A01 T02160207  RH  094%=      5-min Rain = 0
KAM3 270130Z 17019G28KT 22/21 A2986 RMK A01 T02170208  RH  094%=      5-min Rain = 0
KAM3 270131Z 17021KT 22/21 A2986 RMK A01 T02160208  RH  095%=      5-min Rain = 0
KAM3 270132Z 18021G26KT 22/21 A2986 RMK A01 T02170208  RH  095%=      5-min Rain = 0
KAM3 270133Z 18019G25KT 22/21 A2986 RMK A01 T02170209  RH  095%=      5-min Rain = 0
KAM3 270134Z 18020G25KT 22/21 A2987 RMK A01 T02170210  RH  096%=      5-min Rain = 0
KAM3 270135Z 18019G29KT 22/21 A2987 RMK A01 T02170210  RH  096%=      5-min Rain = 0
KAM3 270136Z 18025G31KT 22/21 A2987 RMK A01 T02160209  RH  095%=      5-min Rain = 0
KAM3 270137Z 19021G27KT 22/21 A2988 RMK A01 T02170208  RH  095%=      5-min Rain = 0
KAM3 270138Z 19020G26KT 22/21 A2989 RMK A01 T02170208  RH  094%=      5-min Rain = 0
KAM3 270139Z 19017KT 22/21 A2989 RMK A01 T02170208  RH  095%=      5-min Rain = 0
KAM3 270140Z 20017G22KT 22/21 A299 RMK A01 T02170209  RH  095%=      5-min Rain = 0
KAM3 270141Z 21019KT 22/21 A299 RMK A01 T02170210  RH  096%=      5-min Rain = 0
KAM3 270142Z 21017KT 22/21 A299 RMK A01 T02170210  RH  096%=      5-min Rain = 0
KAM3 270143Z 21021KT 22/21 A299 RMK A01 T02170210  RH  095%=      5-min Rain = 0
KAM3 270144Z 21019G24KT 22/21 A2991 RMK A01 T02170209  RH  095%=      5-min Rain = 0
KAM3 270145Z 21020KT 22/21 A2991 RMK A01 T02170209  RH  095%=      5-min Rain = 0
KAM3 270146Z 21019G24KT 22/21 A2991 RMK A01 T02180210  RH  095%=      5-min Rain = 0
KAM3 270147Z 21021KT 22/21 A2991 RMK A01 T02180209  RH  094%=      5-min Rain = 0
KAM3 270148Z 21019G24KT 22/21 A2991 RMK A01 T02180208  RH  094%=      5-min Rain = 0
KAM3 270149Z 21016KT 22/21 A2992 RMK A01 T02180209  RH  095%=      5-min Rain = 0
KAM3 270150Z 21017KT 22/21 A2992 RMK A01 T02180211  RH  095%=      5-min Rain = 0
KAM3 270151Z 21020KT 22/21 A2992 RMK A01 T02180210  RH  095%=      5-min Rain = 0
KAM3 270152Z 20018G24KT 22/21 A2992 RMK A01 T02180210  RH  095%=      5-min Rain = 0
KAM3 270153Z 21020KT 22/21 A2992 RMK A01 T02180209  RH  095%=      5-min Rain = 0
KAM3 270154Z 21018KT 22/21 A2992 RMK A01 T02180208  RH  094%=      5-min Rain = 0
KAM3 270155Z 21016G21KT 22/21 A2992 RMK A01 T02190207  RH  093%=      5-min Rain = 0
KAM3 270156Z 22020KT 22/21 A2993 RMK A01 T02190208  RH  093%=      5-min Rain = 0
KAM3 270157Z 21019KT 22/21 A2993 RMK A01 T02190208  RH  093%=      5-min Rain = 0
KAM3 270158Z 22017G23KT 22/21 A2993 RMK A01 T02200208  RH  093%=      5-min Rain = 0
KAM3 270159Z 22022KT 22/21 A2994 RMK A01 T02200210  RH  094%=      5-min Rain = 0
KAM3 270200Z 22022KT 22/21 A2995 RMK A01 T02190213  RH  096%=      5-min Rain = 0
KAM3 270201Z 24024KT 22/22 A2996 RMK A01 T02180215  RH  098%=      5-min Rain = 0
KAM3 270202Z 25034G42KT 22/20 A2997 RMK A01 T02160199  RH  091%=      5-min Rain = 0
KAM3 270203Z 24037G44KT 20/15 A2997 RMK A01 T02010147  RH  071%=      5-min Rain = 0
KAM3 270204Z 25031KT 18/14 A2997 RMK A01 T01820142  RH  078%=      5-min Rain = 0
KAM3 270205Z 25035G40KT 17/14 A2996 RMK A01 T01670143  RH  086%=      5-min Rain = 0
KAM3 270206Z 26026KT 16/15 A2996 RMK A01 T01550149  RH  097%=      5-min Rain = 0
KAM3 270207Z 27025G30KT 15/15 A2995 RMK A01 T01490149  RH  100%=      5-min Rain = 0
KAM3 270208Z 27019KT 15/15 A2993 RMK A01 T01460146  RH  100%=      5-min Rain = 0
KAM3 270209Z 28020KT 14/14 A2992 RMK A01 T01440144  RH  100%=      5-min Rain = 0
KAM3 270210Z 28020KT 14/14 A2991 RMK A01 T01430143  RH  100%=      5-min Rain = 0
KAM3 270211Z 27023KT 14/14 A2991 RMK A01 T01420142  RH  100%=      5-min Rain = 0
KAM3 270212Z 27020G26KT 14/14 A2992 RMK A01 T01420142  RH  100%=      5-min Rain = 0
KAM3 270213Z 27019KT 14/14 A2993 RMK A01 T01420142  RH  100%=      5-min Rain = 0
KAM3 270214Z 26018KT 14/14 A2995 RMK A01 T01420142  RH  100%=      5-min Rain = 0
KAM3 270215Z 25015KT 14/14 A2995 RMK A01 T01410141  RH  100%=      5-min Rain = 0
KAM3 270216Z 25016KT 14/14 A2996 RMK A01 T01410141  RH  100%=      5-min Rain = 0
KAM3 270217Z 24015KT 14/14 A2997 RMK A01 T01410141  RH  100%=      5-min Rain = 0
KAM3 270218Z 24013KT 14/14 A2997 RMK A01 T01410141  RH  100%=      5-min Rain = 0
KAM3 270219Z 24013G18KT 14/14 A2997 RMK A01 T01410141  RH  100%=      5-min Rain = 0
KAM3 270220Z 23010KT 14/14 A2997 RMK A01 T01410141  RH  100%=      5-min Rain = 0
KAM3 270221Z 22011G16KT 14/14 A2998 RMK A01 T01410141  RH  100%=      5-min Rain = 0
KAM3 270222Z 21009KT 14/14 A2998 RMK A01 T01410141  RH  100%=      5-min Rain = 0
KAM3 270223Z 20008KT 14/14 A2998 RMK A01 T01410141  RH  100%=      5-min Rain = 0
KAM3 270224Z 20007KT 14/14 A2997 RMK A01 T01410141  RH  100%=      5-min Rain = 0
KAM3 270225Z 17008KT 14/14 A2996 RMK A01 T01410141  RH  100%=      5-min Rain = 0
KAM3 270226Z 13009KT 14/14 A2994 RMK A01 T01420142  RH  100%=      5-min Rain = 0
KAM3 270227Z 14011KT 14/14 A2994 RMK A01 T01420142  RH  100%=      5-min Rain = 0
KAM3 270228Z 13013KT 14/14 A2993 RMK A01 T01420142  RH  100%=      5-min Rain = 0
KAM3 270229Z 12019KT 14/14 A2991 RMK A01 T01420142  RH  100%=      5-min Rain = 0
KAM3 270230Z 11019KT 14/14 A2989 RMK A01 T01420142  RH  100%=      5-min Rain = 0
KAM3 270231Z 15018G26KT 14/14 A2989 RMK A01 T01430143  RH  100%=      5-min Rain = 0
KAM3 270232Z 17017KT 15/15 A2989 RMK A01 T01450145  RH  100%=      5-min Rain = 0
KAM3 270233Z 16017KT 15/15 A2989 RMK A01 T01480148  RH  100%=      5-min Rain = 0
KAM3 270234Z 16019G24KT 15/15 A2989 RMK A01 T01480149  RH  100%=      5-min Rain = 0
KAM3 270235Z 17016KT 15/15 A2989 RMK A01 T01500150  RH  100%=      5-min Rain = 0
KAM3 270236Z 18018G23KT 15/15 A299 RMK A01 T01500150  RH  100%=      5-min Rain = 0
KAM3 270237Z 18018KT 15/15 A2991 RMK A01 T01510151  RH  100%=      5-min Rain = 0
KAM3 270238Z 18014KT 15/15 A2991 RMK A01 T01510151  RH  100%=      5-min Rain = 0
KAM3 270239Z 17015KT 15/15 A2991 RMK A01 T01510151  RH  100%=      5-min Rain = 0
KAM3 270240Z 18017KT 15/15 A2992 RMK A01 T01510151  RH  100%=      5-min Rain = 0
KAM3 270241Z 18018KT 15/15 A2992 RMK A01 T01500151  RH  100%=      5-min Rain = 0
KAM3 270242Z 18015G21KT 15/15 A2992 RMK A01 T01500151  RH  100%=      5-min Rain = 0
KAM3 270243Z 18017G23KT 15/15 A2992 RMK A01 T01510151  RH  100%=      5-min Rain = 0
KAM3 270244Z 17016KT 15/15 A2991 RMK A01 T01520152  RH  100%=      5-min Rain = 0
KAM3 270245Z 17015KT 15/15 A2991 RMK A01 T01520153  RH  100%=      5-min Rain = 0
KAM3 270246Z 17016KT 15/15 A2991 RMK A01 T01520153  RH  100%=      5-min Rain = 0
KAM3 270247Z 16016KT 15/15 A2991 RMK A01 T01520152  RH  100%=      5-min Rain = 0
KAM3 270248Z 16013KT 15/15 A2991 RMK A01 T01520153  RH  100%=      5-min Rain = 0
KAM3 270249Z 16013KT 15/15 A2991 RMK A01 T01510152  RH  100%=      5-min Rain = 0
KAM3 270250Z 16013KT 15/15 A2991 RMK A01 T01510151  RH  100%=      5-min Rain = 0
KAM3 270251Z 15014KT 15/15 A2992 RMK A01 T01500150  RH  100%=      5-min Rain = 0
KAM3 270252Z 15017KT 15/15 A2993 RMK A01 T01490149  RH  100%=      5-min Rain = 0
KAM3 270253Z 16016KT 15/15 A2993 RMK A01 T01490149  RH  100%=      5-min Rain = 0
KAM3 270254Z 15012KT 15/15 A2993 RMK A01 T01480148  RH  100%=      5-min Rain = 0
KAM3 270255Z 15014KT 15/15 A2992 RMK A01 T01470147  RH  100%=      5-min Rain = 0
KAM3 270256Z 15012KT 15/15 A2992 RMK A01 T01460146  RH  100%=      5-min Rain = 0
KAM3 270257Z 15010KT 15/15 A2992 RMK A01 T01450145  RH  100%=      5-min Rain = 0
KAM3 270258Z 16009KT 14/14 A2992 RMK A01 T01440144  RH  100%=      5-min Rain = 0
KAM3 270259Z 16011KT 14/14 A2992 RMK A01 T01430143  RH  100%=      5-min Rain = 0
KAM3 270300Z 15010KT 14/14 A2992 RMK A01 T01430143  RH  100%=      5-min Rain = 0
KAM3 270301Z 15012KT 14/14 A2992 RMK A01 T01430143  RH  100%=      5-min Rain = 0
KAM3 270302Z 15011KT 14/14 A2992 RMK A01 T01430143  RH  100%=      5-min Rain = 0
KAM3 270303Z 14012KT 14/14 A2992 RMK A01 T01430143  RH  100%=      5-min Rain = 0
KAM3 270304Z 14013KT 14/14 A2991 RMK A01 T01430143  RH  100%=      5-min Rain = 0
KAM3 270305Z 13013KT 14/14 A299 RMK A01 T01420143  RH  100%=      5-min Rain = 0
KAM3 270306Z 13014KT 14/14 A2989 RMK A01 T01420142  RH  100%=      5-min Rain = 0
KAM3 270307Z 12014KT 14/14 A2988 RMK A01 T01420142  RH  100%=      5-min Rain = 0
KAM3 270308Z 12012KT 14/14 A2988 RMK A01 T01420142  RH  100%=      5-min Rain = 0
KAM3 270309Z 13011KT 14/14 A2988 RMK A01 T01420142  RH  100%=      5-min Rain = 0
KAM3 270310Z 13010KT 14/14 A2988 RMK A01 T01420142  RH  100%=      5-min Rain = 0
KAM3 270311Z 14010KT 14/14 A2988 RMK A01 T01430143  RH  100%=      5-min Rain = 0
KAM3 270312Z 14010KT 14/14 A2989 RMK A01 T01440144  RH  100%=      5-min Rain = 0
KAM3 270313Z 16009KT 15/15 A2989 RMK A01 T01450145  RH  100%=      5-min Rain = 0
KAM3 270314Z 16009KT 15/15 A2989 RMK A01 T01450145  RH  100%=      5-min Rain = 0
KAM3 270315Z 15008KT 15/15 A2989 RMK A01 T01460146  RH  100%=      5-min Rain = 0
KAM3 270316Z 15009KT 15/15 A2989 RMK A01 T01470147  RH  100%=      5-min Rain = 0
KAM3 270317Z 15010KT 15/15 A2989 RMK A01 T01470147  RH  100%=      5-min Rain = 0
KAM3 270318Z 15013KT 15/15 A299 RMK A01 T01470147  RH  100%=      5-min Rain = 0
KAM3 270319Z 15011KT 15/15 A299 RMK A01 T01470147  RH  100%=      5-min Rain = 0
KAM3 270320Z 15010KT 15/15 A2989 RMK A01 T01470147  RH  100%=      5-min Rain = 0
KAM3 270321Z 15010KT 15/15 A2989 RMK A01 T01470147  RH  100%=      5-min Rain = 0
KAM3 270322Z 15012KT 15/15 A2989 RMK A01 T01460146  RH  100%=      5-min Rain = 0
KAM3 270323Z 15011KT 15/15 A2989 RMK A01 T01470147  RH  100%=      5-min Rain = 0
KAM3 270324Z 15010KT 15/15 A2989 RMK A01 T01470147  RH  100%=      5-min Rain = 0
KAM3 270325Z 15010KT 15/15 A2989 RMK A01 T01470147  RH  100%=      5-min Rain = 0
KAM3 270326Z 15009KT 15/15 A2989 RMK A01 T01460146  RH  100%=      5-min Rain = 0
KAM3 270327Z 15008KT 15/15 A2989 RMK A01 T01460146  RH  100%=      5-min Rain = 0
KAM3 270328Z 15010KT 15/15 A2989 RMK A01 T01460146  RH  100%=      5-min Rain = 0
KAM3 270329Z 15010KT 15/15 A2989 RMK A01 T01470147  RH  100%=      5-min Rain = 0
KAM3 270330Z 15010KT 15/15 A2989 RMK A01 T01470148  RH  100%=      5-min Rain = 0
KAM3 270331Z 15010KT 15/15 A2989 RMK A01 T01480148  RH  100%=      5-min Rain = 0
KAM3 270332Z 15009KT 15/15 A2989 RMK A01 T01480148  RH  100%=      5-min Rain = 0
KAM3 270333Z 15009KT 15/15 A2989 RMK A01 T01480148  RH  100%=      5-min Rain = 0
KAM3 270334Z 15010KT 15/15 A2989 RMK A01 T01480149  RH  100%=      5-min Rain = 0
KAM3 270335Z 16010KT 15/15 A299 RMK A01 T01480148  RH  100%=      5-min Rain = 0
KAM3 270336Z 15011KT 15/15 A2989 RMK A01 T01480148  RH  100%=      5-min Rain = 0
KAM3 270337Z 15012KT 15/15 A2989 RMK A01 T01480148  RH  100%=      5-min Rain = 0
KAM3 270338Z 15013KT 15/15 A2989 RMK A01 T01480148  RH  100%=      5-min Rain = 0
KAM3 270339Z 15012KT 15/15 A2989 RMK A01 T01480148  RH  100%=      5-min Rain = 0
KAM3 270340Z 15012KT 15/15 A2989 RMK A01 T01480148  RH  100%=      5-min Rain = 0
KAM3 270341Z 15013KT 15/15 A2989 RMK A01 T01480148  RH  100%=      5-min Rain = 0
KAM3 270342Z 15012KT 15/15 A2989 RMK A01 T01480148  RH  100%=      5-min Rain = 0
KAM3 270343Z 14013KT 15/15 A2988 RMK A01 T01480148  RH  100%=      5-min Rain = 0
KAM3 270344Z 14012KT 15/15 A2988 RMK A01 T01480148  RH  100%=      5-min Rain = 0
KAM3 270345Z 15012KT 15/15 A2988 RMK A01 T01480148  RH  100%=      5-min Rain = 0
KAM3 270346Z 15012KT 15/15 A2988 RMK A01 T01490149  RH  100%=      5-min Rain = 0
KAM3 270347Z 15011KT 15/15 A2988 RMK A01 T01490149  RH  100%=      5-min Rain = 0
KAM3 270348Z 16011KT 15/15 A2989 RMK A01 T01500150  RH  100%=      5-min Rain = 0
KAM3 270349Z 16010KT 15/15 A2989 RMK A01 T01500151  RH  100%=      5-min Rain = 0
KAM3 270350Z 15010KT 15/15 A2989 RMK A01 T01510151  RH  100%=      5-min Rain = 0
KAM3 270351Z 16009KT 15/15 A2989 RMK A01 T01510151  RH  100%=      5-min Rain = 0
KAM3 270352Z 16008KT 15/15 A299 RMK A01 T01510151  RH  100%=      5-min Rain = 0
KAM3 270353Z 16008KT 15/15 A299 RMK A01 T01510151  RH  100%=      5-min Rain = 0
KAM3 270354Z 16006KT 15/15 A2989 RMK A01 T01510151  RH  100%=      5-min Rain = 0
KAM3 270355Z 17007KT 15/15 A2989 RMK A01 T01520152  RH  100%=      5-min Rain = 0
KAM3 270356Z 18006KT 15/15 A299 RMK A01 T01520152  RH  100%=      5-min Rain = 0
KAM3 270357Z 18006KT 15/15 A299 RMK A01 T01520152  RH  100%=      5-min Rain = 0
KAM3 270358Z 18006KT 15/15 A299 RMK A01 T01520152  RH  100%=      5-min Rain = 0
KAM3 270359Z 20007KT 15/15 A299 RMK A01 T01520152  RH  100%=      5-min Rain = 0
KAM3 270400Z 21006KT 15/15 A2991 RMK A01 T01520152  RH  100%=      5-min Rain = 0
KAM3 270401Z 23006KT 15/15 A2991 RMK A01 T01520152  RH  100%=      5-min Rain = 0
KAM3 270402Z 25006KT 15/15 A2991 RMK A01 T01520152  RH  100%=      5-min Rain = 0
KAM3 270403Z 28008KT 15/15 A2991 RMK A01 T01520152  RH  100%=      5-min Rain = 0
KAM3 270404Z 29011KT 15/15 A2991 RMK A01 T01510151  RH  100%=      5-min Rain = 0
KAM3 270405Z 29011KT 15/15 A2991 RMK A01 T01500150  RH  100%=      5-min Rain = 0
KAM3 270406Z 29011KT 15/15 A2991 RMK A01 T01500150  RH  100%=      5-min Rain = 0
KAM3 270407Z 29010KT 15/15 A2991 RMK A01 T01500150  RH  100%=      5-min Rain = 0
KAM3 270408Z 29013KT 15/15 A2991 RMK A01 T01500150  RH  100%=      5-min Rain = 0
KAM3 270409Z 29010KT 15/15 A2991 RMK A01 T01500150  RH  100%=      5-min Rain = 0
KAM3 270410Z 28010KT 15/15 A2991 RMK A01 T01500150  RH  100%=      5-min Rain = 0
KAM3 270411Z 27008KT 15/15 A2991 RMK A01 T01510151  RH  100%=      5-min Rain = 0
KAM3 270412Z 26007KT 15/15 A2991 RMK A01 T01510151  RH  100%=      5-min Rain = 0
KAM3 270413Z 26006KT 15/15 A2991 RMK A01 T01510151  RH  100%=      5-min Rain = 0
KAM3 270414Z 26006KT 15/15 A2991 RMK A01 T01510151  RH  100%=      5-min Rain = 0
KAM3 270415Z 26006KT 15/15 A2991 RMK A01 T01520152  RH  100%=      5-min Rain = 0
KAM3 270416Z 25004KT 15/15 A2991 RMK A01 T01520152  RH  100%=      5-min Rain = 0
KAM3 270417Z 26003KT 15/15 A299 RMK A01 T01530153  RH  100%=      5-min Rain = 0
KAM3 270418Z 26002KT 15/15 A299 RMK A01 T01530153  RH  100%=      5-min Rain = 0
KAM3 270419Z 25002KT 15/15 A2989 RMK A01 T01530153  RH  100%=      5-min Rain = 0
KAM3 270420Z 26002KT 15/15 A2989 RMK A01 T01530153  RH  100%=      5-min Rain = 0
KAM3 270421Z 26003KT 15/15 A2989 RMK A01 T01530153  RH  100%=      5-min Rain = 0
KAM3 270422Z 25004KT 15/15 A2989 RMK A01 T01520152  RH  100%=      5-min Rain = 0
KAM3 270423Z 26003KT 15/15 A2989 RMK A01 T01520152  RH  100%=      5-min Rain = 0
KAM3 270424Z 27003KT 15/15 A2989 RMK A01 T01530153  RH  100%=      5-min Rain = 0
KAM3 270425Z 28004KT 15/15 A2989 RMK A01 T01530153  RH  100%=      5-min Rain = 0
KAM3 270426Z 28004KT 15/15 A2989 RMK A01 T01520153  RH  100%=      5-min Rain = 0
KAM3 270427Z 29004KT 15/15 A2989 RMK A01 T01530153  RH  100%=      5-min Rain = 0
KAM3 270428Z 30004KT 15/15 A2989 RMK A01 T01530153  RH  100%=      5-min Rain = 0
KAM3 270429Z 30005KT 15/15 A299 RMK A01 T01530153  RH  100%=      5-min Rain = 0
KAM3 270430Z 29005KT 15/15 A299 RMK A01 T01520153  RH  100%=      5-min Rain = 0
KAM3 270431Z 29006KT 15/15 A299 RMK A01 T01530153  RH  100%=      5-min Rain = 0
KAM3 270432Z 30006KT 15/15 A299 RMK A01 T01520153  RH  100%=      5-min Rain = 0
KAM3 270433Z 29006KT 15/15 A299 RMK A01 T01520153  RH  100%=      5-min Rain = 0
KAM3 270434Z 30006KT 15/15 A299 RMK A01 T01520153  RH  100%=      5-min Rain = 0
KAM3 270435Z 30006KT 15/15 A2989 RMK A01 T01520153  RH  100%=      5-min Rain = 0
KAM3 270436Z 31007KT 15/15 A2989 RMK A01 T01520152  RH  100%=      5-min Rain = 0
KAM3 270437Z 32007KT 15/15 A2988 RMK A01 T01520152  RH  100%=      5-min Rain = 0
KAM3 270438Z 32005KT 15/15 A2988 RMK A01 T01520152  RH  100%=      5-min Rain = 0
KAM3 270439Z 32005KT 15/15 A2988 RMK A01 T01520152  RH  100%=      5-min Rain = 0
KAM3 270440Z 33005KT 15/15 A2988 RMK A01 T01520152  RH  100%=      5-min Rain = 0
KAM3 270441Z 32005KT 15/15 A2988 RMK A01 T01520152  RH  100%=      5-min Rain = 0
KAM3 270442Z 32005KT 15/15 A2988 RMK A01 T01520152  RH  100%=      5-min Rain = 0
KAM3 270443Z 33005KT 15/15 A2987 RMK A01 T01520152  RH  100%=      5-min Rain = 0
KAM3 270444Z 34006KT 15/15 A2987 RMK A01 T01520152  RH  100%=      5-min Rain = 0
KAM3 270445Z 32006KT 15/15 A2987 RMK A01 T01520152  RH  100%=      5-min Rain = 0
KAM3 270446Z 32007KT 15/15 A2988 RMK A01 T01520152  RH  100%=      5-min Rain = 0
KAM3 270447Z 32008KT 15/15 A2988 RMK A01 T01520152  RH  100%=      5-min Rain = 0
KAM3 270448Z 32008KT 15/15 A2988 RMK A01 T01520152  RH  100%=      5-min Rain = 0
KAM3 270449Z 32009KT 15/15 A2988 RMK A01 T01520152  RH  100%=      5-min Rain = 0
KAM3 270450Z 33010KT 15/15 A2988 RMK A01 T01520152  RH  100%=      5-min Rain = 0
KAM3 270451Z 33009KT 15/15 A2988 RMK A01 T01520152  RH  100%=      5-min Rain = 0
KAM3 270452Z 32009KT 15/15 A2989 RMK A01 T01510152  RH  100%=      5-min Rain = 0
KAM3 270453Z 31008KT 15/15 A299 RMK A01 T01510151  RH  100%=      5-min Rain = 0
KAM3 270454Z 30007KT 15/15 A299 RMK A01 T01510151  RH  100%=      5-min Rain = 0
KAM3 270455Z 29007KT 15/15 A2991 RMK A01 T01500150  RH  100%=      5-min Rain = 0
KAM3 270456Z 28007KT 15/15 A2991 RMK A01 T01500150  RH  100%=      5-min Rain = 0
KAM3 270457Z 32005KT 15/15 A2991 RMK A01 T01500150  RH  100%=      5-min Rain = 0
KAM3 270458Z 35007KT 15/15 A2989 RMK A01 T01490149  RH  100%=      5-min Rain = 0
KAM3 270459Z 01002KT 15/15 A299 RMK A01 T01490149  RH  100%=      5-min Rain = 0

Page generated in 0.0771 seconds.